Wetterdaten: Freitag, 10.12.2021
Datum Zeit Temp. Aussen Temp. o. S. Temp +5cm Feuchte Auss Luftdruck Regen Sonnenschein Regendauer Solar Windben Empfang
10.12.2021 00:00 3,1 C 2,2 C 0,6 C 96 % 1000,7 hPa 0,0 l/m 0 min 0 min 0 W/m 6,4 km/h (2 Bft) 100,00 %
10.12.2021 00:02 3,1 C 2,2 C 0,6 C 96 % 1000,8 hPa 0,0 l/m 0 min 0 min 0 W/m 6,4 km/h (2 Bft) 94,87 %
10.12.2021 00:04 3,0 C 2,2 C 0,6 C 96 % 1000,8 hPa 0,0 l/m 0 min 0 min 0 W/m 6,4 km/h (2 Bft) 97,62 %
10.12.2021 00:08 2,9 C 2,2 C 0,6 C 96 % 1000,7 hPa 0,0 l/m 0 min 0 min 0 W/m 16,1 km/h (3 Bft) 100,00 %
10.12.2021 00:10 2,9 C 2,2 C 0,6 C 96 % 1000,7 hPa 0,0 l/m 0 min 0 min 0 W/m 12,9 km/h (3 Bft) 100,00 %
10.12.2021 00:12 2,9 C 2,2 C 0,0 C 96 % 1000,7 hPa 0,0 l/m 0 min 0 min 0 W/m 12,9 km/h (3 Bft) 100,00 %
10.12.2021 00:14 2,8 C 2,2 C 0,0 C 96 % 1000,6 hPa 0,0 l/m 0 min 0 min 0 W/m 6,4 km/h (2 Bft) 100,00 %
10.12.2021 00:16 2,8 C 2,2 C 0,6 C 96 % 1000,6 hPa 0,0 l/m 0 min 0 min 0 W/m 9,7 km/h (2 Bft) 100,00 %
10.12.2021 00:18 2,8 C 2,2 C 0,6 C 96 % 1000,5 hPa 0,0 l/m 0 min 0 min 0 W/m 12,9 km/h (3 Bft) 100,00 %
10.12.2021 00:20 2,8 C 2,2 C 0,6 C 96 % 1000,5 hPa 0,0 l/m 0 min 0 min 0 W/m 16,1 km/h (3 Bft) 100,00 %
10.12.2021 00:22 2,8 C 2,2 C 0,6 C 96 % 1000,4 hPa 0,0 l/m 0 min 0 min 0 W/m 16,1 km/h (3 Bft) 100,00 %
10.12.2021 00:24 2,8 C 2,2 C 0,6 C 96 % 1000,3 hPa 0,0 l/m 0 min 0 min 0 W/m 16,1 km/h (3 Bft) 100,00 %
10.12.2021 00:26 2,8 C 2,2 C 0,6 C 96 % 1000,3 hPa 0,0 l/m 0 min 0 min 0 W/m 16,1 km/h (3 Bft) 97,87 %
10.12.2021 00:28 2,8 C 2,2 C 0,6 C 96 % 1000,2 hPa 0,0 l/m 0 min 0 min 0 W/m 16,1 km/h (3 Bft) 100,00 %
10.12.2021 00:30 2,8 C 2,2 C 0,6 C 96 % 1000,2 hPa 0,0 l/m 0 min 0 min 0 W/m 16,1 km/h (3 Bft) 100,00 %
10.12.2021 00:32 2,8 C 2,2 C 0,6 C 96 % 1000,2 hPa 0,0 l/m 0 min 0 min 0 W/m 19,3 km/h (3 Bft) 100,00 %
10.12.2021 00:34 2,8 C 2,2 C 0,6 C 96 % 1000,2 hPa 0,0 l/m 0 min 0 min 0 W/m 16,1 km/h (3 Bft) 100,00 %
10.12.2021 00:36 2,8 C 2,2 C 0,6 C 96 % 1000,1 hPa 0,0 l/m 0 min 0 min 0 W/m 16,1 km/h (3 Bft) 100,00 %
10.12.2021 00:38 2,8 C 2,2 C 0,6 C 96 % 1000,1 hPa 0,0 l/m 0 min 0 min 0 W/m 16,1 km/h (3 Bft) 100,00 %
10.12.2021 00:40 2,8 C 2,2 C 0,6 C 96 % 1000,0 hPa 0,0 l/m 0 min 0 min 0 W/m 9,7 km/h (2 Bft) 100,00 %
10.12.2021 00:42 2,8 C 2,2 C 0,6 C 96 % 1000,0 hPa 0,0 l/m 0 min 0 min 0 W/m 12,9 km/h (3 Bft) 97,83 %
10.12.2021 00:44 2,8 C 2,2 C 0,6 C 96 % 999,9 hPa 0,0 l/m 0 min 0 min 0 W/m 16,1 km/h (3 Bft) 97,87 %
10.12.2021 00:46 2,8 C 2,2 C 0,6 C 96 % 999,9 hPa 0,0 l/m 0 min 0 min 0 W/m 19,3 km/h (3 Bft) 95,12 %
10.12.2021 00:48 2,8 C 2,2 C 0,6 C 96 % 999,7 hPa 0,0 l/m 0 min 0 min 0 W/m 19,3 km/h (3 Bft) 95,74 %
10.12.2021 00:50 2,8 C 2,2 C 0,6 C 96 % 999,7 hPa 0,0 l/m 0 min 0 min 0 W/m 16,1 km/h (3 Bft) 96,23 %
10.12.2021 00:52 2,8 C 2,2 C 0,6 C 96 % 999,7 hPa 0,0 l/m 0 min 0 min 0 W/m 12,9 km/h (3 Bft) 97,87 %
10.12.2021 00:54 2,8 C 2,2 C 0,6 C 96 % 999,6 hPa 0,0 l/m 0 min 0 min 0 W/m 12,9 km/h (3 Bft) 97,83 %
10.12.2021 00:56 2,8 C 2,2 C 0,6 C 96 % 999,6 hPa 0,0 l/m 0 min 0 min 0 W/m 16,1 km/h (3 Bft) 97,87 %
10.12.2021 00:58 2,8 C 2,2 C 0,6 C 96 % 999,5 hPa 0,0 l/m 0 min 0 min 0 W/m 16,1 km/h (3 Bft) 95,45 %
10.12.2021 01:00 2,8 C 2,2 C 0,6 C 96 % 999,4 hPa 0,0 l/m 0 min 0 min 0 W/m 16,1 km/h (3 Bft) 95,74 %
10.12.2021 01:02 2,8 C 2,2 C 0,6 C 96 % 999,4 hPa 0,0 l/m 0 min 0 min 0 W/m 12,9 km/h (3 Bft) 92,00 %
10.12.2021 01:04 2,8 C 2,2 C 0,6 C 96 % 999,3 hPa 0,0 l/m 0 min 0 min 0 W/m 19,3 km/h (3 Bft) 93,62 %
10.12.2021 01:06 2,8 C 2,2 C 0,6 C 96 % 999,4 hPa 0,0 l/m 0 min 0 min 0 W/m 12,9 km/h (3 Bft) 95,65 %
10.12.2021 01:08 2,8 C 2,2 C 0,6 C 96 % 999,3 hPa 0,0 l/m 0 min 0 min 0 W/m 12,9 km/h (3 Bft) 95,74 %
10.12.2021 01:10 2,8 C 2,8 C 0,6 C 96 % 999,3 hPa 0,0 l/m 0 min 0 min 0 W/m 12,9 km/h (3 Bft) 93,62 %
10.12.2021 01:12 2,8 C 2,8 C 0,6 C 96 % 999,2 hPa 0,0 l/m 0 min 0 min 0 W/m 16,1 km/h (3 Bft) 95,74 %
10.12.2021 01:14 2,8 C 2,8 C 0,6 C 96 % 999,1 hPa 0,0 l/m 0 min 0 min 0 W/m 12,9 km/h (3 Bft) 95,74 %
10.12.2021 01:16 2,9 C 2,8 C 0,6 C 96 % 999,1 hPa 0,0 l/m 0 min 0 min 0 W/m 16,1 km/h (3 Bft) 95,12 %
10.12.2021 01:18 2,9 C 2,8 C 0,6 C 96 % 999,0 hPa 0,0 l/m 0 min 0 min 0 W/m 12,9 km/h (3 Bft) 95,74 %
10.12.2021 01:20 2,9 C 2,8 C 0,6 C 96 % 999,0 hPa 0,0 l/m 0 min 0 min 0 W/m 12,9 km/h (3 Bft) 93,48 %
10.12.2021 01:22 2,9 C 2,8 C 0,6 C 96 % 999,0 hPa 0,0 l/m 0 min 0 min 0 W/m 19,3 km/h (3 Bft) 96,61 %
10.12.2021 01:24 2,9 C 2,8 C 0,6 C 96 % 999,0 hPa 0,0 l/m 0 min 0 min 0 W/m 12,9 km/h (3 Bft) 95,74 %
10.12.2021 01:26 2,9 C 2,8 C 0,6 C 96 % 999,0 hPa 0,0 l/m 0 min 0 min 0 W/m 16,1 km/h (3 Bft) 95,65 %
10.12.2021 01:28 3,0 C 2,8 C 0,6 C 96 % 998,9 hPa 0,0 l/m 0 min 0 min 0 W/m 16,1 km/h (3 Bft) 97,87 %
10.12.2021 01:30 3,0 C 2,8 C 1,1 C 96 % 998,8 hPa 0,0 l/m 0 min 0 min 0 W/m 9,7 km/h (2 Bft) 95,74 %
10.12.2021 01:32 3,0 C 2,8 C 1,1 C 96 % 998,9 hPa 0,0 l/m 0 min 0 min 0 W/m 12,9 km/h (3 Bft) 95,74 %
10.12.2021 01:34 3,0 C 2,8 C 1,1 C 96 % 998,8 hPa 0,0 l/m 0 min 0 min 0 W/m 16,1 km/h (3 Bft) 97,87 %
10.12.2021 01:36 3,1 C 2,8 C 1,1 C 96 % 998,8 hPa 0,0 l/m 0 min 0 min 0 W/m 6,4 km/h (2 Bft) 91,49 %
10.12.2021 01:38 3,1 C 2,8 C 1,1 C 96 % 998,8 hPa 0,0 l/m 0 min 0 min 0 W/m 16,1 km/h (3 Bft) 97,83 %
10.12.2021 01:40 3,1 C 2,8 C 1,1 C 96 % 998,7 hPa 0,0 l/m 0 min 0 min 0 W/m 12,9 km/h (3 Bft) 97,87 %
10.12.2021 01:42 3,1 C 2,8 C 1,1 C 96 % 998,7 hPa 0,0 l/m 0 min 0 min 0 W/m 12,9 km/h (3 Bft) 97,87 %
10.12.2021 01:44 3,1 C 2,8 C 1,1 C 96 % 998,7 hPa 0,0 l/m 0 min 0 min 0 W/m 12,9 km/h (3 Bft) 95,74 %
10.12.2021 01:46 3,1 C 2,8 C 1,1 C 96 % 998,6 hPa 0,0 l/m 0 min 0 min 0 W/m 12,9 km/h (3 Bft) 95,74 %
10.12.2021 01:48 3,1 C 2,8 C 1,1 C 96 % 998,7 hPa 0,0 l/m 0 min 0 min 0 W/m 9,7 km/h (2 Bft) 97,87 %
10.12.2021 01:50 3,1 C 2,8 C 1,1 C 96 % 998,6 hPa 0,0 l/m 0 min 0 min 0 W/m 16,1 km/h (3 Bft) 97,83 %
10.12.2021 01:52 3,2 C 2,8 C 1,1 C 96 % 998,6 hPa 0,0 l/m 0 min 0 min 0 W/m 12,9 km/h (3 Bft) 97,87 %
10.12.2021 01:54 3,2 C 2,8 C 1,1 C 96 % 998,5 hPa 0,0 l/m 0 min 0 min 0 W/m 6,4 km/h (2 Bft) 95,74 %
10.12.2021 01:56 3,2 C 2,8 C 1,1 C 96 % 998,5 hPa 0,0 l/m 0 min 0 min 0 W/m 9,7 km/h (2 Bft) 97,87 %
10.12.2021 01:58 3,2 C 2,8 C 1,1 C 96 % 998,5 hPa 0,0 l/m 0 min 0 min 0 W/m 12,9 km/h (3 Bft) 97,92 %
10.12.2021 02:00 3,2 C 2,8 C 1,1 C 96 % 998,5 hPa 0,0 l/m 0 min 0 min 0 W/m 16,1 km/h (3 Bft) 95,74 %
10.12.2021 02:02 3,2 C 2,8 C 1,1 C 96 % 998,5 hPa 0,0 l/m 0 min 0 min 0 W/m 6,4 km/h (2 Bft) 97,83 %
10.12.2021 02:04 3,2 C 2,8 C 1,1 C 96 % 998,5 hPa 0,0 l/m 0 min 0 min 0 W/m 6,4 km/h (2 Bft) 97,67 %
10.12.2021 02:06 3,2 C 2,8 C 1,1 C 96 % 998,5 hPa 0,0 l/m 0 min 0 min 0 W/m 16,1 km/h (3 Bft) 95,74 %
10.12.2021 02:08 3,2 C 2,8 C 1,1 C 96 % 998,4 hPa 0,0 l/m 0 min 0 min 0 W/m 12,9 km/h (3 Bft) 97,87 %
10.12.2021 02:10 3,2 C 2,8 C 1,1 C 96 % 998,4 hPa 0,0 l/m 0 min 0 min 0 W/m 6,4 km/h (2 Bft) 95,74 %
10.12.2021 02:12 3,2 C 2,8 C 1,1 C 96 % 998,4 hPa 0,0 l/m 0 min 0 min 0 W/m 12,9 km/h (3 Bft) 100,00 %
10.12.2021 02:14 3,2 C 2,8 C 1,1 C 96 % 998,3 hPa 0,0 l/m 0 min 0 min 0 W/m 16,1 km/h (3 Bft) 100,00 %
10.12.2021 02:16 3,2 C 2,8 C 1,1 C 96 % 998,3 hPa 0,0 l/m 0 min 0 min 0 W/m 12,9 km/h (3 Bft) 100,00 %
10.12.2021 02:18 3,1 C 2,2 C 1,1 C 96 % 998,2 hPa 0,0 l/m 0 min 0 min 0 W/m 12,9 km/h (3 Bft) 97,87 %
10.12.2021 02:20 3,1 C 2,2 C 1,1 C 96 % 998,2 hPa 0,0 l/m 0 min 0 min 0 W/m 6,4 km/h (2 Bft) 97,87 %
10.12.2021 02:22 3,1 C 2,2 C 0,6 C 96 % 998,2 hPa 0,0 l/m 0 min 0 min 0 W/m 6,4 km/h (2 Bft) 48,72 %
10.12.2021 02:24 3,1 C 2,2 C 0,6 C 96 % 998,1 hPa 0,0 l/m 0 min 0 min 0 W/m 16,1 km/h (3 Bft) 100,00 %
10.12.2021 02:26 3,1 C 2,2 C 0,6 C 95 % 998,1 hPa 0,0 l/m 0 min 0 min 0 W/m 12,9 km/h (3 Bft) 100,00 %
10.12.2021 02:28 3,0 C 2,2 C 0,6 C 95 % 998,0 hPa 0,0 l/m 0 min 0 min 0 W/m 12,9 km/h (3 Bft) 100,00 %
10.12.2021 02:30 3,0 C 2,2 C 0,6 C 95 % 998,0 hPa 0,0 l/m 0 min 0 min 0 W/m 12,9 km/h (3 Bft) 100,00 %
10.12.2021 02:32 3,0 C 2,2 C 0,6 C 95 % 997,9 hPa 0,0 l/m 0 min 0 min 0 W/m 12,9 km/h (3 Bft) 93,62 %
10.12.2021 02:34 2,9 C 2,2 C 0,6 C 95 % 997,9 hPa 0,0 l/m 0 min 0 min 0 W/m 12,9 km/h (3 Bft) 100,00 %
10.12.2021 02:36 2,9 C 2,2 C 0,6 C 95 % 997,8 hPa 0,0 l/m 0 min 0 min 0 W/m 12,9 km/h (3 Bft) 100,00 %
10.12.2021 02:38 2,9 C 2,2 C 0,6 C 95 % 997,7 hPa 0,0 l/m 0 min 0 min 0 W/m 19,3 km/h (3 Bft) 97,83 %
10.12.2021 02:40 2,9 C 2,2 C 0,6 C 95 % 997,7 hPa 0,0 l/m 0 min 0 min 0 W/m 16,1 km/h (3 Bft) 100,00 %
10.12.2021 02:42 2,8 C 2,2 C 0,6 C 95 % 997,8 hPa 0,0 l/m 0 min 0 min 0 W/m 19,3 km/h (3 Bft) 97,87 %
10.12.2021 02:44 2,8 C 2,2 C 0,6 C 95 % 997,7 hPa 0,0 l/m 0 min 0 min 0 W/m 12,9 km/h (3 Bft) 97,87 %
10.12.2021 02:46 2,8 C 2,2 C 0,6 C 95 % 997,8 hPa 0,0 l/m 0 min 0 min 0 W/m 6,4 km/h (2 Bft) 97,87 %
10.12.2021 02:48 2,8 C 2,2 C 0,6 C 95 % 997,7 hPa 0,0 l/m 0 min 0 min 0 W/m 12,9 km/h (3 Bft) 97,87 %
10.12.2021 02:50 2,8 C 2,2 C 0,6 C 95 % 997,6 hPa 0,0 l/m 0 min 0 min 0 W/m 12,9 km/h (3 Bft) 97,83 %
10.12.2021 02:52 2,8 C 2,2 C 0,6 C 95 % 997,6 hPa 0,0 l/m 0 min 0 min 0 W/m 16,1 km/h (3 Bft) 97,87 %
10.12.2021 02:54 2,8 C 2,2 C 0,6 C 95 % 997,6 hPa 0,0 l/m 0 min 0 min 0 W/m 12,9 km/h (3 Bft) 97,87 %
10.12.2021 02:56 2,7 C 2,2 C 0,6 C 95 % 997,5 hPa 0,0 l/m 0 min 0 min 0 W/m 12,9 km/h (3 Bft) 97,87 %
10.12.2021 02:58 2,7 C 2,2 C 0,6 C 95 % 997,5 hPa 0,0 l/m 0 min 0 min 0 W/m 12,9 km/h (3 Bft) 98,00 %
10.12.2021 03:00 2,7 C 2,2 C 0,6 C 95 % 997,4 hPa 0,0 l/m 0 min 0 min 0 W/m 12,9 km/h (3 Bft) 97,83 %
10.12.2021 03:02 2,7 C 2,2 C 0,6 C 95 % 997,4 hPa 0,0 l/m 0 min 0 min 0 W/m 12,9 km/h (3 Bft) 93,75 %
10.12.2021 03:04 2,7 C 2,2 C 0,6 C 95 % 997,3 hPa 0,0 l/m 0 min 0 min 0 W/m 12,9 km/h (3 Bft) 97,87 %
10.12.2021 03:06 2,6 C 1,7 C 0,6 C 95 % 997,2 hPa 0,0 l/m 0 min 0 min 0 W/m 12,9 km/h (3 Bft) 95,74 %
10.12.2021 03:08 2,6 C 1,7 C 0,6 C 95 % 997,2 hPa 0,0 l/m 0 min 0 min 0 W/m 12,9 km/h (3 Bft) 97,87 %
10.12.2021 03:10 2,6 C 1,7 C 0,6 C 94 % 997,1 hPa 0,0 l/m 0 min 0 min 0 W/m 6,4 km/h (2 Bft) 97,87 %
10.12.2021 03:12 2,6 C 1,7 C 0,6 C 94 % 997,1 hPa 0,0 l/m 0 min 0 min 0 W/m 6,4 km/h (2 Bft) 97,83 %
10.12.2021 03:14 2,6 C 1,7 C 0,6 C 94 % 997,1 hPa 0,0 l/m 0 min 0 min 0 W/m 12,9 km/h (3 Bft) 100,00 %
10.12.2021 03:16 2,6 C 2,2 C 0,6 C 94 % 997,1 hPa 0,0 l/m 0 min 0 min 0 W/m 19,3 km/h (3 Bft) 100,00 %
10.12.2021 03:18 2,6 C 2,2 C 0,6 C 94 % 997,0 hPa 0,0 l/m 0 min 0 min 0 W/m 16,1 km/h (3 Bft) 100,00 %
10.12.2021 03:20 2,6 C 2,2 C 0,6 C 94 % 996,9 hPa 0,0 l/m 0 min 0 min 0 W/m 12,9 km/h (3 Bft) 97,87 %
10.12.2021 03:22 2,5 C 2,2 C 0,6 C 94 % 996,8 hPa 0,0 l/m 0 min 0 min 0 W/m 16,1 km/h (3 Bft) 100,00 %
10.12.2021 03:24 2,5 C 2,2 C 0,6 C 94 % 996,7 hPa 0,0 l/m 0 min 0 min 0 W/m 16,1 km/h (3 Bft) 100,00 %
10.12.2021 03:26 2,5 C 2,2 C 0,6 C 94 % 996,7 hPa 0,0 l/m 0 min 0 min 0 W/m 12,9 km/h (3 Bft) 100,00 %
10.12.2021 03:28 2,5 C 2,2 C 0,6 C 94 % 996,6 hPa 0,0 l/m 0 min 0 min 0 W/m 22,5 km/h (4 Bft) 100,00 %
10.12.2021 03:30 2,5 C 2,2 C 0,6 C 94 % 996,6 hPa 0,0 l/m 0 min 0 min 0 W/m 12,9 km/h (3 Bft) 100,00 %
10.12.2021 03:32 2,5 C 2,2 C 0,6 C 94 % 996,6 hPa 0,0 l/m 0 min 0 min 0 W/m 16,1 km/h (3 Bft) 100,00 %
10.12.2021 03:34 2,5 C 2,2 C 0,6 C 94 % 996,5 hPa 0,0 l/m 0 min 0 min 0 W/m 16,1 km/h (3 Bft) 100,00 %
10.12.2021 03:36 2,5 C 2,2 C 0,6 C 94 % 996,5 hPa 0,0 l/m 0 min 0 min 0 W/m 12,9 km/h (3 Bft) 100,00 %
10.12.2021 03:38 2,5 C 2,2 C 0,6 C 94 % 996,5 hPa 0,0 l/m 0 min 0 min 0 W/m 12,9 km/h (3 Bft) 97,87 %
10.12.2021 03:40 2,5 C 2,2 C 0,6 C 94 % 996,4 hPa 0,0 l/m 0 min 0 min 0 W/m 12,9 km/h (3 Bft) 100,00 %
10.12.2021 03:42 2,5 C 2,2 C 0,6 C 94 % 996,3 hPa 0,0 l/m 0 min 0 min 0 W/m 16,1 km/h (3 Bft) 100,00 %
10.12.2021 03:44 2,5 C 2,2 C 0,6 C 94 % 996,2 hPa 0,0 l/m 0 min 0 min 0 W/m 19,3 km/h (3 Bft) 95,74 %
10.12.2021 03:46 2,6 C 2,2 C 0,6 C 94 % 996,2 hPa 0,0 l/m 0 min 0 min 0 W/m 12,9 km/h (3 Bft) 100,00 %
10.12.2021 03:48 2,6 C 2,2 C 0,6 C 94 % 996,1 hPa 0,0 l/m 0 min 0 min 0 W/m 19,3 km/h (3 Bft) 97,83 %
10.12.2021 03:50 2,6 C 2,2 C 0,6 C 94 % 996,1 hPa 0,0 l/m 0 min 0 min 0 W/m 19,3 km/h (3 Bft) 100,00 %
10.12.2021 03:52 2,6 C 2,2 C 0,6 C 94 % 996,1 hPa 0,0 l/m 0 min 0 min 0 W/m 19,3 km/h (3 Bft) 97,87 %
10.12.2021 03:54 2,6 C 2,2 C 0,6 C 93 % 996,0 hPa 0,0 l/m 0 min 0 min 0 W/m 19,3 km/h (3 Bft) 97,87 %
10.12.2021 03:56 2,6 C 2,2 C 0,6 C 93 % 996,0 hPa 0,0 l/m 0 min 0 min 0 W/m 25,7 km/h (4 Bft) 95,74 %
10.12.2021 03:58 2,6 C 2,2 C 0,6 C 93 % 996,0 hPa 0,0 l/m 0 min 0 min 0 W/m 16,1 km/h (3 Bft) 97,83 %
10.12.2021 04:00 2,6 C 2,2 C 0,6 C 93 % 995,9 hPa 0,0 l/m 0 min 0 min 0 W/m 19,3 km/h (3 Bft) 93,75 %
10.12.2021 04:02 2,6 C 2,2 C 0,6 C 93 % 995,9 hPa 0,0 l/m 0 min 0 min 0 W/m 16,1 km/h (3 Bft) 100,00 %
10.12.2021 04:04 2,7 C 2,2 C 0,6 C 93 % 995,9 hPa 0,0 l/m 0 min 0 min 0 W/m 16,1 km/h (3 Bft) 98,00 %
10.12.2021 04:06 2,7 C 2,2 C 0,6 C 93 % 995,9 hPa 0,0 l/m 0 min 0 min 0 W/m 19,3 km/h (3 Bft) 95,74 %
10.12.2021 04:08 2,7 C 2,2 C 0,6 C 93 % 995,9 hPa 0,0 l/m 0 min 0 min 0 W/m 16,1 km/h (3 Bft) 95,74 %
10.12.2021 04:10 2,7 C 2,2 C 0,6 C 93 % 995,9 hPa 0,0 l/m 0 min 0 min 0 W/m 16,1 km/h (3 Bft) 95,65 %
10.12.2021 04:12 2,7 C 2,2 C 0,6 C 93 % 995,9 hPa 0,0 l/m 0 min 0 min 0 W/m 16,1 km/h (3 Bft) 93,62 %
10.12.2021 04:14 2,7 C 2,2 C 0,6 C 93 % 995,8 hPa 0,0 l/m 0 min 0 min 0 W/m 19,3 km/h (3 Bft) 95,74 %
10.12.2021 04:16 2,7 C 2,2 C 0,6 C 93 % 995,8 hPa 0,0 l/m 0 min 0 min 0 W/m 19,3 km/h (3 Bft) 95,74 %
10.12.2021 04:18 2,7 C 2,2 C 0,6 C 93 % 995,7 hPa 0,0 l/m 0 min 0 min 0 W/m 19,3 km/h (3 Bft) 95,74 %
10.12.2021 04:20 2,7 C 2,2 C 0,6 C 93 % 995,7 hPa 0,0 l/m 0 min 0 min 0 W/m 12,9 km/h (3 Bft) 95,65 %
10.12.2021 04:22 2,7 C 2,2 C 0,6 C 92 % 995,6 hPa 0,0 l/m 0 min 0 min 0 W/m 16,1 km/h (3 Bft) 93,62 %
10.12.2021 04:24 2,7 C 2,2 C 0,6 C 92 % 995,6 hPa 0,0 l/m 0 min 0 min 0 W/m 19,3 km/h (3 Bft) 95,74 %
10.12.2021 04:26 2,7 C 2,2 C 0,6 C 93 % 995,5 hPa 0,0 l/m 0 min 0 min 0 W/m 22,5 km/h (4 Bft) 93,62 %
10.12.2021 04:28 2,7 C 2,2 C 0,6 C 93 % 995,5 hPa 0,0 l/m 0 min 0 min 0 W/m 16,1 km/h (3 Bft) 93,62 %
10.12.2021 04:30 2,7 C 2,2 C 0,6 C 92 % 995,5 hPa 0,0 l/m 0 min 0 min 0 W/m 12,9 km/h (3 Bft) 95,74 %
10.12.2021 04:32 2,7 C 2,2 C 0,6 C 92 % 995,5 hPa 0,0 l/m 0 min 0 min 0 W/m 16,1 km/h (3 Bft) 93,48 %
10.12.2021 04:34 2,7 C 2,2 C 0,6 C 92 % 995,5 hPa 0,0 l/m 0 min 0 min 0 W/m 16,1 km/h (3 Bft) 91,49 %
10.12.2021 04:36 2,7 C 2,2 C 0,6 C 92 % 995,4 hPa 0,0 l/m 0 min 0 min 0 W/m 16,1 km/h (3 Bft) 95,74 %
10.12.2021 04:38 2,7 C 2,2 C 0,6 C 92 % 995,4 hPa 0,0 l/m 0 min 0 min 0 W/m 16,1 km/h (3 Bft) 95,74 %
10.12.2021 04:40 2,7 C 2,2 C 0,6 C 92 % 995,4 hPa 0,0 l/m 0 min 0 min 0 W/m 19,3 km/h (3 Bft) 93,62 %
10.12.2021 04:42 2,7 C 2,2 C 0,6 C 92 % 995,3 hPa 0,0 l/m 0 min 0 min 0 W/m 19,3 km/h (3 Bft) 93,62 %
10.12.2021 04:44 2,7 C 2,2 C 0,6 C 92 % 995,3 hPa 0,0 l/m 0 min 0 min 0 W/m 19,3 km/h (3 Bft) 95,65 %
10.12.2021 04:46 2,7 C 2,2 C 0,6 C 92 % 995,3 hPa 0,0 l/m 0 min 0 min 0 W/m 16,1 km/h (3 Bft) 93,62 %
10.12.2021 04:48 2,7 C 2,2 C 0,6 C 92 % 995,3 hPa 0,0 l/m 0 min 0 min 0 W/m 12,9 km/h (3 Bft) 95,74 %
10.12.2021 04:50 2,7 C 2,2 C 0,6 C 92 % 995,2 hPa 0,0 l/m 0 min 0 min 0 W/m 19,3 km/h (3 Bft) 95,74 %
10.12.2021 04:52 2,7 C 2,2 C 0,6 C 92 % 995,2 hPa 0,0 l/m 0 min 0 min 0 W/m 19,3 km/h (3 Bft) 95,74 %
10.12.2021 04:54 2,7 C 2,2 C 0,6 C 92 % 995,3 hPa 0,0 l/m 0 min 0 min 0 W/m 16,1 km/h (3 Bft) 95,74 %
10.12.2021 04:56 2,7 C 2,2 C 0,6 C 92 % 995,2 hPa 0,0 l/m 0 min 0 min 0 W/m 16,1 km/h (3 Bft) 95,65 %
10.12.2021 04:58 2,7 C 2,2 C 0,6 C 92 % 995,1 hPa 0,0 l/m 0 min 0 min 0 W/m 19,3 km/h (3 Bft) 97,96 %
10.12.2021 05:00 2,7 C 2,2 C 0,6 C 92 % 995,1 hPa 0,0 l/m 0 min 0 min 0 W/m 22,5 km/h (4 Bft) 97,83 %
10.12.2021 05:02 2,7 C 2,2 C 0,6 C 92 % 995,1 hPa 0,0 l/m 0 min 0 min 0 W/m 16,1 km/h (3 Bft) 100,00 %
10.12.2021 05:04 2,8 C 2,2 C 0,6 C 92 % 995,0 hPa 0,0 l/m 0 min 0 min 0 W/m 22,5 km/h (4 Bft) 97,67 %
10.12.2021 05:06 2,8 C 2,2 C 0,6 C 92 % 995,0 hPa 0,0 l/m 0 min 0 min 0 W/m 25,7 km/h (4 Bft) 100,00 %
10.12.2021 05:08 2,8 C 2,2 C 0,6 C 92 % 994,9 hPa 0,0 l/m 0 min 0 min 0 W/m 25,7 km/h (4 Bft) 100,00 %
10.12.2021 05:10 2,8 C 2,2 C 0,6 C 92 % 994,9 hPa 0,0 l/m 0 min 0 min 0 W/m 19,3 km/h (3 Bft) 100,00 %
10.12.2021 05:12 2,8 C 2,2 C 0,6 C 92 % 994,9 hPa 0,0 l/m 0 min 0 min 0 W/m 16,1 km/h (3 Bft) 97,87 %
10.12.2021 05:14 2,8 C 2,2 C 0,6 C 92 % 994,8 hPa 0,0 l/m 0 min 0 min 0 W/m 16,1 km/h (3 Bft) 100,00 %
10.12.2021 05:16 2,8 C 2,2 C 0,6 C 92 % 994,8 hPa 0,0 l/m 0 min 0 min 0 W/m 12,9 km/h (3 Bft) 100,00 %
10.12.2021 05:18 2,8 C 2,2 C 0,6 C 92 % 994,7 hPa 0,0 l/m 0 min 0 min 0 W/m 16,1 km/h (3 Bft) 100,00 %
10.12.2021 05:20 2,8 C 2,2 C 0,6 C 92 % 994,6 hPa 0,0 l/m 0 min 0 min 0 W/m 22,5 km/h (4 Bft) 100,00 %
10.12.2021 05:22 2,8 C 2,2 C 0,6 C 92 % 994,6 hPa 0,0 l/m 0 min 0 min 0 W/m 19,3 km/h (3 Bft) 100,00 %
10.12.2021 05:24 2,8 C 2,2 C 0,6 C 92 % 994,6 hPa 0,0 l/m 0 min 0 min 0 W/m 16,1 km/h (3 Bft) 100,00 %
10.12.2021 05:26 2,8 C 2,2 C 0,6 C 92 % 994,6 hPa 0,0 l/m 0 min 0 min 0 W/m 19,3 km/h (3 Bft) 100,00 %
10.12.2021 05:28 2,9 C 2,2 C 0,6 C 92 % 994,6 hPa 0,0 l/m 0 min 0 min 0 W/m 19,3 km/h (3 Bft) 100,00 %
10.12.2021 05:30 2,8 C 2,2 C 0,6 C 92 % 994,5 hPa 0,0 l/m 0 min 0 min 0 W/m 19,3 km/h (3 Bft) 100,00 %
10.12.2021 05:32 2,9 C 2,2 C 0,6 C 92 % 994,5 hPa 0,0 l/m 0 min 0 min 0 W/m 19,3 km/h (3 Bft) 100,00 %
10.12.2021 05:34 2,9 C 2,2 C 0,6 C 92 % 994,4 hPa 0,0 l/m 0 min 0 min 0 W/m 22,5 km/h (4 Bft) 100,00 %
10.12.2021 05:36 2,9 C 2,2 C 0,6 C 92 % 994,4 hPa 0,0 l/m 0 min 0 min 0 W/m 25,7 km/h (4 Bft) 100,00 %
10.12.2021 05:38 2,9 C 2,2 C 0,6 C 92 % 994,4 hPa 0,0 l/m 0 min 0 min 0 W/m 19,3 km/h (3 Bft) 100,00 %
10.12.2021 05:40 2,9 C 2,2 C 0,6 C 92 % 994,3 hPa 0,0 l/m 0 min 0 min 0 W/m 19,3 km/h (3 Bft) 100,00 %
10.12.2021 05:42 2,9 C 2,2 C 0,6 C 92 % 994,3 hPa 0,0 l/m 0 min 0 min 0 W/m 16,1 km/h (3 Bft) 97,83 %
10.12.2021 05:44 2,9 C 2,2 C 0,6 C 91 % 994,3 hPa 0,0 l/m 0 min 0 min 0 W/m 19,3 km/h (3 Bft) 97,87 %
10.12.2021 05:46 2,9 C 2,2 C 0,6 C 91 % 994,3 hPa 0,0 l/m 0 min 0 min 0 W/m 19,3 km/h (3 Bft) 100,00 %
10.12.2021 05:48 2,9 C 2,2 C 0,6 C 91 % 994,3 hPa 0,0 l/m 0 min 0 min 0 W/m 19,3 km/h (3 Bft) 100,00 %
10.12.2021 05:50 2,9 C 2,2 C 0,6 C 91 % 994,2 hPa 0,0 l/m 0 min 0 min 0 W/m 25,7 km/h (4 Bft) 100,00 %
10.12.2021 05:52 2,9 C 2,2 C 0,6 C 91 % 994,2 hPa 0,0 l/m 0 min 0 min 0 W/m 22,5 km/h (4 Bft) 100,00 %
10.12.2021 05:54 2,9 C 2,2 C 0,6 C 91 % 994,1 hPa 0,0 l/m 0 min 0 min 0 W/m 19,3 km/h (3 Bft) 100,00 %
10.12.2021 05:56 3,0 C 2,2 C 0,6 C 91 % 994,1 hPa 0,0 l/m 0 min 0 min 0 W/m 12,9 km/h (3 Bft) 100,00 %
10.12.2021 05:58 2,9 C 2,2 C 0,6 C 91 % 994,1 hPa 0,0 l/m 0 min 0 min 0 W/m 16,1 km/h (3 Bft) 100,00 %
10.12.2021 06:00 3,0 C 2,2 C 0,6 C 91 % 994,0 hPa 0,0 l/m 0 min 0 min 0 W/m 16,1 km/h (3 Bft) 95,74 %
10.12.2021 06:02 3,0 C 2,2 C 0,6 C 91 % 994,0 hPa 0,0 l/m 0 min 0 min 0 W/m 25,7 km/h (4 Bft) 100,00 %
10.12.2021 06:04 3,0 C 2,2 C 0,6 C 91 % 994,0 hPa 0,0 l/m 0 min 0 min 0 W/m 22,5 km/h (4 Bft) 100,00 %
10.12.2021 06:08 3,0 C 2,2 C 0,6 C 91 % 993,9 hPa 0,0 l/m 0 min 0 min 0 W/m 29,0 km/h (5 Bft) 98,95 %
10.12.2021 06:10 3,1 C 2,2 C 0,6 C 91 % 993,9 hPa 0,0 l/m 0 min 0 min 0 W/m 29,0 km/h (5 Bft) 97,87 %
10.12.2021 06:12 3,0 C 2,2 C 0,6 C 91 % 993,9 hPa 0,0 l/m 0 min 0 min 0 W/m 19,3 km/h (3 Bft) 100,00 %
10.12.2021 06:14 3,1 C 2,2 C 0,6 C 91 % 993,8 hPa 0,0 l/m 0 min 0 min 0 W/m 16,1 km/h (3 Bft) 97,87 %
10.12.2021 06:16 3,1 C 2,2 C 0,6 C 91 % 993,8 hPa 0,0 l/m 0 min 0 min 0 W/m 22,5 km/h (4 Bft) 100,00 %
10.12.2021 06:18 3,0 C 2,2 C 0,6 C 91 % 993,7 hPa 0,0 l/m 0 min 0 min 0 W/m 22,5 km/h (4 Bft) 97,83 %
10.12.2021 06:20 3,0 C 2,2 C 0,6 C 91 % 993,7 hPa 0,0 l/m 0 min 0 min 0 W/m 16,1 km/h (3 Bft) 100,00 %
10.12.2021 06:22 3,0 C 2,2 C 0,6 C 91 % 993,7 hPa 0,0 l/m 0 min 0 min 0 W/m 19,3 km/h (3 Bft) 95,74 %
10.12.2021 06:24 3,0 C 2,2 C 0,6 C 91 % 993,6 hPa 0,0 l/m 0 min 0 min 0 W/m 19,3 km/h (3 Bft) 95,74 %
10.12.2021 06:26 3,0 C 2,2 C 0,6 C 91 % 993,7 hPa 0,0 l/m 0 min 0 min 0 W/m 16,1 km/h (3 Bft) 95,74 %
10.12.2021 06:28 3,0 C 2,2 C 0,6 C 91 % 993,6 hPa 0,0 l/m 0 min 0 min 0 W/m 12,9 km/h (3 Bft) 95,65 %
10.12.2021 06:30 2,9 C 2,2 C 0,6 C 91 % 993,5 hPa 0,0 l/m 0 min 0 min 0 W/m 25,7 km/h (4 Bft) 93,62 %
10.12.2021 06:32 2,9 C 2,2 C 0,6 C 91 % 993,5 hPa 0,0 l/m 0 min 0 min 0 W/m 19,3 km/h (3 Bft) 95,74 %
10.12.2021 06:34 2,9 C 2,2 C 0,6 C 91 % 993,6 hPa 0,0 l/m 0 min 0 min 0 W/m 19,3 km/h (3 Bft) 93,62 %
10.12.2021 06:36 2,9 C 2,2 C 0,6 C 91 % 993,5 hPa 0,0 l/m 0 min 0 min 0 W/m 22,5 km/h (4 Bft) 93,62 %
10.12.2021 06:38 2,9 C 2,2 C 0,6 C 91 % 993,5 hPa 0,0 l/m 0 min 0 min 0 W/m 19,3 km/h (3 Bft) 95,74 %
10.12.2021 06:40 2,9 C 2,2 C 0,6 C 91 % 993,5 hPa 0,0 l/m 0 min 0 min 0 W/m 19,3 km/h (3 Bft) 93,48 %
10.12.2021 06:42 2,9 C 2,2 C 0,6 C 91 % 993,4 hPa 0,0 l/m 0 min 0 min 0 W/m 22,5 km/h (4 Bft) 95,74 %
10.12.2021 06:44 2,9 C 2,2 C 0,6 C 91 % 993,4 hPa 0,0 l/m 0 min 0 min 0 W/m 25,7 km/h (4 Bft) 95,74 %
10.12.2021 06:46 2,9 C 2,2 C 0,6 C 91 % 993,3 hPa 0,0 l/m 0 min 0 min 0 W/m 19,3 km/h (3 Bft) 95,74 %
10.12.2021 06:48 2,9 C 2,2 C 0,6 C 91 % 993,3 hPa 0,0 l/m 0 min 0 min 0 W/m 16,1 km/h (3 Bft) 95,74 %
10.12.2021 06:50 2,9 C 2,2 C 0,6 C 91 % 993,3 hPa 0,0 l/m 0 min 0 min 0 W/m 16,1 km/h (3 Bft) 95,74 %
10.12.2021 06:52 2,9 C 2,2 C 0,6 C 91 % 993,3 hPa 0,0 l/m 0 min 0 min 0 W/m 16,1 km/h (3 Bft) 95,65 %
10.12.2021 06:54 2,9 C 2,2 C 0,6 C 91 % 993,2 hPa 0,0 l/m 0 min 0 min 0 W/m 25,7 km/h (4 Bft) 95,74 %
10.12.2021 06:56 2,9 C 2,2 C 0,6 C 91 % 993,2 hPa 0,0 l/m 0 min 0 min 0 W/m 22,5 km/h (4 Bft) 97,87 %
10.12.2021 06:58 2,9 C 2,2 C 0,6 C 90 % 993,2 hPa 0,0 l/m 0 min 0 min 0 W/m 16,1 km/h (3 Bft) 97,87 %
10.12.2021 07:00 2,9 C 2,2 C 0,6 C 90 % 993,2 hPa 0,0 l/m 0 min 0 min 0 W/m 16,1 km/h (3 Bft) 97,87 %
10.12.2021 07:02 2,8 C 2,2 C 0,6 C 90 % 993,2 hPa 0,0 l/m 0 min 0 min 0 W/m 12,9 km/h (3 Bft) 97,87 %
10.12.2021 07:04 2,8 C 2,2 C 0,6 C 90 % 993,1 hPa 0,0 l/m 0 min 0 min 0 W/m 16,1 km/h (3 Bft) 97,83 %
10.12.2021 07:06 2,8 C 2,2 C 0,6 C 90 % 993,1 hPa 0,0 l/m 0 min 0 min 0 W/m 25,7 km/h (4 Bft) 95,74 %
10.12.2021 07:08 2,8 C 2,2 C 0,6 C 90 % 993,1 hPa 0,0 l/m 0 min 0 min 0 W/m 16,1 km/h (3 Bft) 95,74 %
10.12.2021 07:10 2,8 C 2,2 C 0,0 C 91 % 993,1 hPa 0,0 l/m 0 min 0 min 0 W/m 22,5 km/h (4 Bft) 95,74 %
10.12.2021 07:12 2,8 C 2,2 C 0,0 C 91 % 993,1 hPa 0,0 l/m 0 min 0 min 0 W/m 22,5 km/h (4 Bft) 97,87 %
10.12.2021 07:14 2,8 C 2,2 C 0,0 C 91 % 993,1 hPa 0,0 l/m 0 min 0 min 0 W/m 12,9 km/h (3 Bft) 97,87 %
10.12.2021 07:16 2,8 C 2,2 C 0,6 C 91 % 993,1 hPa 0,0 l/m 0 min 0 min 0 W/m 19,3 km/h (3 Bft) 97,83 %
10.12.2021 07:18 2,8 C 2,2 C 0,6 C 91 % 993,0 hPa 0,0 l/m 0 min 0 min 0 W/m 19,3 km/h (3 Bft) 97,87 %
10.12.2021 07:20 2,8 C 2,2 C 0,6 C 91 % 993,0 hPa 0,0 l/m 0 min 0 min 0 W/m 22,5 km/h (4 Bft) 97,87 %
10.12.2021 07:22 2,8 C 2,2 C 0,6 C 91 % 993,0 hPa 0,0 l/m 0 min 0 min 0 W/m 19,3 km/h (3 Bft) 97,87 %
10.12.2021 07:24 2,8 C 2,2 C 0,6 C 90 % 993,0 hPa 0,0 l/m 0 min 0 min 0 W/m 19,3 km/h (3 Bft) 95,74 %
10.12.2021 07:26 2,8 C 2,2 C 0,0 C 90 % 993,0 hPa 0,0 l/m 0 min 0 min 0 W/m 16,1 km/h (3 Bft) 97,87 %
10.12.2021 07:28 2,8 C 2,2 C 0,0 C 90 % 992,9 hPa 0,0 l/m 0 min 0 min 0 W/m 12,9 km/h (3 Bft) 97,83 %
10.12.2021 07:30 2,8 C 2,2 C 0,0 C 90 % 992,9 hPa 0,0 l/m 0 min 0 min 0 W/m 12,9 km/h (3 Bft) 97,87 %
10.12.2021 07:32 2,8 C 2,2 C 0,0 C 90 % 992,9 hPa 0,0 l/m 0 min 0 min 0 W/m 29,0 km/h (5 Bft) 97,87 %
10.12.2021 07:34 2,8 C 2,2 C 0,0 C 90 % 992,8 hPa 0,0 l/m 0 min 0 min 0 W/m 19,3 km/h (3 Bft) 97,87 %
10.12.2021 07:36 2,8 C 2,2 C 0,6 C 90 % 992,9 hPa 0,0 l/m 0 min 0 min 0 W/m 25,7 km/h (4 Bft) 97,87 %
10.12.2021 07:38 2,8 C 2,2 C 0,6 C 90 % 992,9 hPa 0,0 l/m 0 min 0 min 0 W/m 19,3 km/h (3 Bft) 97,83 %
10.12.2021 07:40 2,8 C 2,2 C 0,6 C 90 % 992,9 hPa 0,0 l/m 0 min 0 min 0 W/m 25,7 km/h (4 Bft) 97,87 %
10.12.2021 07:42 2,8 C 2,2 C 0,0 C 90 % 992,8 hPa 0,0 l/m 0 min 0 min 0 W/m 16,1 km/h (3 Bft) 95,74 %
10.12.2021 07:44 2,8 C 2,2 C 0,0 C 90 % 992,8 hPa 0,0 l/m 0 min 0 min 0 W/m 19,3 km/h (3 Bft) 95,74 %
10.12.2021 07:46 2,8 C 2,2 C 0,6 C 90 % 992,8 hPa 0,0 l/m 0 min 0 min 0 W/m 22,5 km/h (4 Bft) 97,87 %
10.12.2021 07:48 2,8 C 2,2 C 0,6 C 90 % 992,8 hPa 0,0 l/m 0 min 0 min 0 W/m 22,5 km/h (4 Bft) 97,87 %
10.12.2021 07:50 2,8 C 2,2 C 0,6 C 90 % 992,8 hPa 0,0 l/m 0 min 0 min 0 W/m 19,3 km/h (3 Bft) 97,83 %
10.12.2021 07:52 2,8 C 2,2 C 0,6 C 90 % 992,8 hPa 0,0 l/m 0 min 0 min 0 W/m 19,3 km/h (3 Bft) 95,74 %
10.12.2021 07:54 2,8 C 2,2 C 0,6 C 90 % 992,8 hPa 0,0 l/m 0 min 0 min 0 W/m 22,5 km/h (4 Bft) 97,87 %
10.12.2021 07:56 2,8 C 2,2 C 0,6 C 90 % 992,8 hPa 0,0 l/m 0 min 0 min 0 W/m 25,7 km/h (4 Bft) 97,87 %
10.12.2021 07:58 2,8 C 2,2 C 0,0 C 90 % 992,8 hPa 0,0 l/m 0 min 0 min 0 W/m 19,3 km/h (3 Bft) 97,87 %
10.12.2021 08:00 2,8 C 2,2 C 0,0 C 90 % 992,7 hPa 0,0 l/m 0 min 0 min 0 W/m 22,5 km/h (4 Bft) 100,00 %
10.12.2021 08:02 2,8 C 2,2 C 0,0 C 90 % 992,7 hPa 0,0 l/m 0 min 0 min 0 W/m 19,3 km/h (3 Bft) 95,65 %
10.12.2021 08:04 2,8 C 2,2 C 0,0 C 90 % 992,7 hPa 0,0 l/m 0 min 0 min 0 W/m 22,5 km/h (4 Bft) 100,00 %
10.12.2021 08:06 2,8 C 2,2 C 0,0 C 90 % 992,7 hPa 0,0 l/m 0 min 0 min 0 W/m 19,3 km/h (3 Bft) 97,87 %
10.12.2021 08:08 2,8 C 2,2 C 0,0 C 90 % 992,7 hPa 0,0 l/m 0 min 0 min 0 W/m 19,3 km/h (3 Bft) 100,00 %
10.12.2021 08:10 2,8 C 2,2 C 0,0 C 90 % 992,6 hPa 0,0 l/m 0 min 0 min 0 W/m 19,3 km/h (3 Bft) 100,00 %
10.12.2021 08:12 2,8 C 2,2 C 0,0 C 90 % 992,6 hPa 0,0 l/m 0 min 0 min 0 W/m 19,3 km/h (3 Bft) 97,87 %
10.12.2021 08:14 2,8 C 2,2 C 0,0 C 90 % 992,6 hPa 0,0 l/m 0 min 0 min 0 W/m 22,5 km/h (4 Bft) 95,65 %
10.12.2021 08:16 2,8 C 2,2 C 0,6 C 90 % 992,7 hPa 0,0 l/m 0 min 0 min 0 W/m 16,1 km/h (3 Bft) 97,87 %
10.12.2021 08:18 2,8 C 2,2 C 0,0 C 90 % 992,7 hPa 0,0 l/m 0 min 0 min 0 W/m 19,3 km/h (3 Bft) 97,87 %
10.12.2021 08:20 2,8 C 2,2 C 0,6 C 90 % 992,7 hPa 0,0 l/m 0 min 0 min 0 W/m 12,9 km/h (3 Bft) 90,00 %
10.12.2021 08:22 2,8 C 2,2 C 0,6 C 90 % 992,7 hPa 0,0 l/m 0 min 0 min 0 W/m 22,5 km/h (4 Bft) 100,00 %
10.12.2021 08:24 2,8 C 2,2 C 0,6 C 90 % 992,5 hPa 0,0 l/m 0 min 0 min 0 W/m 19,3 km/h (3 Bft) 97,83 %
10.12.2021 08:26 2,8 C 2,2 C 0,6 C 90 % 992,7 hPa 0,0 l/m 0 min 0 min 0 W/m 19,3 km/h (3 Bft) 100,00 %
10.12.2021 08:28 2,9 C 2,2 C 0,6 C 90 % 992,6 hPa 0,0 l/m 0 min 0 min 1 W/m 22,5 km/h (4 Bft) 100,00 %
10.12.2021 08:30 2,9 C 2,2 C 0,6 C 90 % 992,7 hPa 0,0 l/m 0 min 0 min 5 W/m 16,1 km/h (3 Bft) 97,87 %
10.12.2021 08:32 2,9 C 2,2 C 0,6 C 90 % 992,6 hPa 0,0 l/m 0 min 0 min 5 W/m 22,5 km/h (4 Bft) 97,87 %
10.12.2021 08:34 2,9 C 2,8 C 0,6 C 90 % 992,6 hPa 0,0 l/m 0 min 0 min 5 W/m 22,5 km/h (4 Bft) 97,87 %
10.12.2021 08:36 2,9 C 2,8 C 0,6 C 90 % 992,7 hPa 0,0 l/m 0 min 0 min 5 W/m 19,3 km/h (3 Bft) 97,83 %
10.12.2021 08:38 3,0 C 2,8 C 0,6 C 90 % 992,6 hPa 0,0 l/m 0 min 0 min 5 W/m 19,3 km/h (3 Bft) 97,87 %
10.12.2021 08:40 3,0 C 2,8 C 0,6 C 90 % 992,6 hPa 0,0 l/m 0 min 0 min 7 W/m 22,5 km/h (4 Bft) 97,87 %
10.12.2021 08:42 3,1 C 2,8 C 0,6 C 90 % 992,6 hPa 0,0 l/m 0 min 0 min 7 W/m 25,7 km/h (4 Bft) 95,74 %
10.12.2021 08:43 3,1 C 2,8 C 0,6 C 90 % 992,6 hPa 0,0 l/m 0 min 0 min 8 W/m 22,5 km/h (4 Bft) 97,87 %
10.12.2021 08:46 3,1 C 2,8 C 0,6 C 89 % 992,6 hPa 0,0 l/m 0 min 0 min 9 W/m 25,7 km/h (4 Bft) 95,74 %
10.12.2021 08:48 3,1 C 2,8 C 0,6 C 89 % 992,5 hPa 0,0 l/m 0 min 0 min 11 W/m 22,5 km/h (4 Bft) 100,00 %
10.12.2021 08:50 3,1 C 2,8 C 0,6 C 89 % 992,5 hPa 0,0 l/m 0 min 0 min 11 W/m 22,5 km/h (4 Bft) 100,00 %
10.12.2021 08:52 3,2 C 2,8 C 0,6 C 89 % 992,5 hPa 0,0 l/m 0 min 0 min 12 W/m 29,0 km/h (5 Bft) 97,87 %
10.12.2021 08:54 3,2 C 2,8 C 0,6 C 89 % 992,6 hPa 0,0 l/m 0 min 0 min 13 W/m 22,5 km/h (4 Bft) 100,00 %
10.12.2021 08:56 3,2 C 2,8 C 0,6 C 89 % 992,5 hPa 0,0 l/m 0 min 0 min 14 W/m 22,5 km/h (4 Bft) 100,00 %
10.12.2021 08:58 3,2 C 2,8 C 0,6 C 89 % 992,4 hPa 0,0 l/m 0 min 0 min 16 W/m 25,7 km/h (4 Bft) 100,00 %
10.12.2021 09:00 3,2 C 2,8 C 0,6 C 89 % 992,4 hPa 0,0 l/m 0 min 0 min 18 W/m 32,2 km/h (5 Bft) 97,83 %
10.12.2021 09:02 3,2 C 2,8 C 0,6 C 88 % 992,4 hPa 0,0 l/m 0 min 0 min 19 W/m 19,3 km/h (3 Bft) 95,83 %
10.12.2021 09:04 3,3 C 2,8 C 0,6 C 88 % 992,4 hPa 0,0 l/m 0 min 0 min 20 W/m 19,3 km/h (3 Bft) 96,97 %
10.12.2021 09:06 3,3 C 2,8 C 0,6 C 88 % 992,4 hPa 0,0 l/m 0 min 0 min 21 W/m 25,7 km/h (4 Bft) 97,87 %
10.12.2021 09:08 3,3 C 2,8 C 0,6 C 88 % 992,4 hPa 0,0 l/m 0 min 0 min 23 W/m 29,0 km/h (5 Bft) 97,87 %
10.12.2021 09:10 3,3 C 2,8 C 0,6 C 88 % 992,4 hPa 0,0 l/m 0 min 0 min 24 W/m 19,3 km/h (3 Bft) 98,18 %
10.12.2021 09:12 3,3 C 2,8 C 0,6 C 88 % 992,4 hPa 0,0 l/m 0 min 0 min 25 W/m 19,3 km/h (3 Bft) 97,83 %
10.12.2021 09:14 3,3 C 2,8 C 0,6 C 88 % 992,4 hPa 0,0 l/m 0 min 0 min 26 W/m 19,3 km/h (3 Bft) 97,87 %
10.12.2021 09:16 3,3 C 2,8 C 0,6 C 88 % 992,4 hPa 0,0 l/m 0 min 0 min 27 W/m 35,4 km/h (5 Bft) 97,87 %
10.12.2021 09:18 3,3 C 2,8 C 0,6 C 88 % 992,3 hPa 0,0 l/m 0 min 0 min 28 W/m 22,5 km/h (4 Bft) 95,74 %
10.12.2021 09:20 3,3 C 2,8 C 0,6 C 88 % 992,4 hPa 0,0 l/m 0 min 0 min 30 W/m 32,2 km/h (5 Bft) 98,00 %
10.12.2021 09:22 3,3 C 2,8 C 0,6 C 87 % 992,4 hPa 0,0 l/m 0 min 0 min 31 W/m 25,7 km/h (4 Bft) 97,83 %
10.12.2021 09:24 3,4 C 2,8 C 0,6 C 87 % 992,4 hPa 0,0 l/m 0 min 0 min 33 W/m 25,7 km/h (4 Bft) 97,87 %
10.12.2021 09:26 3,4 C 2,8 C 0,6 C 87 % 992,4 hPa 0,0 l/m 0 min 0 min 33 W/m 19,3 km/h (3 Bft) 95,74 %
10.12.2021 09:28 3,4 C 3,3 C 1,1 C 87 % 992,4 hPa 0,0 l/m 0 min 0 min 35 W/m 19,3 km/h (3 Bft) 46,15 %
10.12.2021 09:30 3,4 C 3,3 C 1,1 C 87 % 992,3 hPa 0,0 l/m 0 min 0 min 37 W/m 29,0 km/h (5 Bft) 97,92 %
10.12.2021 09:32 3,4 C 3,3 C 1,1 C 87 % 992,3 hPa 0,0 l/m 0 min 0 min 39 W/m 29,0 km/h (5 Bft) 95,74 %
10.12.2021 09:34 3,5 C 3,3 C 1,1 C 87 % 992,2 hPa 0,0 l/m 0 min 0 min 42 W/m 35,4 km/h (5 Bft) 97,83 %
10.12.2021 09:36 3,5 C 3,3 C 1,1 C 87 % 992,3 hPa 0,0 l/m 0 min 0 min 45 W/m 22,5 km/h (4 Bft) 97,22 %
10.12.2021 09:38 3,5 C 3,3 C 1,1 C 87 % 992,3 hPa 0,0 l/m 0 min 0 min 47 W/m 19,3 km/h (3 Bft) 98,15 %
10.12.2021 09:40 3,5 C 3,3 C 1,1 C 87 % 992,3 hPa 0,0 l/m 0 min 0 min 47 W/m 19,3 km/h (3 Bft) 98,00 %
10.12.2021 09:42 3,6 C 3,3 C 1,1 C 87 % 992,2 hPa 0,0 l/m 0 min 0 min 48 W/m 22,5 km/h (4 Bft) 97,87 %
10.12.2021 09:44 3,6 C 3,3 C 1,1 C 87 % 992,3 hPa 0,0 l/m 0 min 0 min 49 W/m 22,5 km/h (4 Bft) 97,92 %
10.12.2021 09:46 3,6 C 3,3 C 1,1 C 87 % 992,4 hPa 0,0 l/m 0 min 0 min 50 W/m 22,5 km/h (4 Bft) 100,00 %
10.12.2021 09:48 3,6 C 3,3 C 1,1 C 87 % 992,3 hPa 0,0 l/m 0 min 0 min 49 W/m 19,3 km/h (3 Bft) 100,00 %
10.12.2021 09:50 3,6 C 3,3 C 1,1 C 87 % 992,3 hPa 0,0 l/m 0 min 0 min 53 W/m 19,3 km/h (3 Bft) 100,00 %
10.12.2021 09:52 3,6 C 3,3 C 1,1 C 87 % 992,3 hPa 0,0 l/m 0 min 0 min 55 W/m 22,5 km/h (4 Bft) 97,87 %
10.12.2021 09:54 3,6 C 3,3 C 1,1 C 87 % 992,3 hPa 0,0 l/m 0 min 0 min 58 W/m 19,3 km/h (3 Bft) 100,00 %
10.12.2021 09:56 3,6 C 3,3 C 1,1 C 87 % 992,2 hPa 0,0 l/m 0 min 0 min 61 W/m 19,3 km/h (3 Bft) 100,00 %
10.12.2021 09:58 3,6 C 3,3 C 1,1 C 87 % 992,2 hPa 0,0 l/m 0 min 0 min 62 W/m 22,5 km/h (4 Bft) 100,00 %
10.12.2021 10:00 3,6 C 3,3 C 1,1 C 87 % 992,3 hPa 0,0 l/m 0 min 0 min 63 W/m 22,5 km/h (4 Bft) 100,00 %
10.12.2021 10:02 3,6 C 3,3 C 1,1 C 87 % 992,2 hPa 0,0 l/m 0 min 0 min 67 W/m 22,5 km/h (4 Bft) 100,00 %
10.12.2021 10:04 3,7 C 3,3 C 1,1 C 87 % 992,2 hPa 0,0 l/m 0 min 0 min 71 W/m 19,3 km/h (3 Bft) 94,55 %
10.12.2021 10:06 3,7 C 3,3 C 1,1 C 87 % 992,3 hPa 0,0 l/m 0 min 0 min 75 W/m 45,1 km/h (6 Bft) 97,87 %
10.12.2021 10:08 3,7 C 3,3 C 1,1 C 87 % 992,3 hPa 0,0 l/m 0 min 0 min 80 W/m 38,6 km/h (5 Bft) 97,83 %
10.12.2021 10:10 3,7 C 3,3 C 1,1 C 87 % 992,3 hPa 0,0 l/m 0 min 0 min 85 W/m 16,1 km/h (3 Bft) 97,37 %
10.12.2021 10:12 3,7 C 3,3 C 1,1 C 87 % 992,3 hPa 0,0 l/m 0 min 0 min 88 W/m 29,0 km/h (5 Bft) 97,92 %
10.12.2021 10:14 3,8 C 3,9 C 1,1 C 87 % 992,3 hPa 0,0 l/m 0 min 0 min 91 W/m 19,3 km/h (3 Bft) 95,74 %
10.12.2021 10:16 3,7 C 3,9 C 1,1 C 86 % 992,3 hPa 0,0 l/m 0 min 0 min 93 W/m 29,0 km/h (5 Bft) 95,74 %
10.12.2021 10:18 3,8 C 3,9 C 1,1 C 86 % 992,3 hPa 0,0 l/m 0 min 0 min 94 W/m 19,3 km/h (3 Bft) 94,55 %
10.12.2021 10:20 3,8 C 3,9 C 1,1 C 86 % 992,3 hPa 0,0 l/m 0 min 0 min 96 W/m 29,0 km/h (5 Bft) 95,65 %
10.12.2021 10:22 3,8 C 3,9 C 1,1 C 86 % 992,3 hPa 0,0 l/m 0 min 0 min 98 W/m 25,7 km/h (4 Bft) 95,74 %
10.12.2021 10:24 3,8 C 3,9 C 1,1 C 86 % 992,4 hPa 0,0 l/m 0 min 0 min 99 W/m 19,3 km/h (3 Bft) 94,74 %
10.12.2021 10:26 3,8 C 3,9 C 1,1 C 86 % 992,4 hPa 0,0 l/m 0 min 0 min 98 W/m 22,5 km/h (4 Bft) 95,74 %
10.12.2021 10:28 3,8 C 3,9 C 1,1 C 86 % 992,4 hPa 0,0 l/m 0 min 0 min 97 W/m 19,3 km/h (3 Bft) 93,62 %
10.12.2021 10:30 3,8 C 3,9 C 1,1 C 86 % 992,3 hPa 0,0 l/m 0 min 0 min 97 W/m 19,3 km/h (3 Bft) 95,74 %
10.12.2021 10:32 3,9 C 3,9 C 1,1 C 86 % 992,3 hPa 0,0 l/m 0 min 0 min 97 W/m 22,5 km/h (4 Bft) 93,62 %
10.12.2021 10:34 3,9 C 3,9 C 1,1 C 86 % 992,3 hPa 0,0 l/m 0 min 0 min 98 W/m 22,5 km/h (4 Bft) 95,65 %
10.12.2021 10:36 3,9 C 3,9 C 1,1 C 86 % 992,3 hPa 0,0 l/m 0 min 0 min 99 W/m 25,7 km/h (4 Bft) 91,67 %
10.12.2021 10:38 3,9 C 3,9 C 1,1 C 85 % 992,3 hPa 0,0 l/m 0 min 0 min 100 W/m 22,5 km/h (4 Bft) 95,74 %
10.12.2021 10:40 3,9 C 3,9 C 1,1 C 85 % 992,3 hPa 0,0 l/m 0 min 0 min 99 W/m 25,7 km/h (4 Bft) 93,62 %
10.12.2021 10:42 3,9 C 3,9 C 1,1 C 85 % 992,4 hPa 0,0 l/m 0 min 0 min 97 W/m 25,7 km/h (4 Bft) 96,30 %
10.12.2021 10:44 3,9 C 3,9 C 1,1 C 85 % 992,3 hPa 0,0 l/m 0 min 0 min 93 W/m 25,7 km/h (4 Bft) 95,74 %
10.12.2021 10:46 3,9 C 3,9 C 1,1 C 85 % 992,4 hPa 0,0 l/m 0 min 0 min 91 W/m 25,7 km/h (4 Bft) 94,74 %
10.12.2021 10:48 3,9 C 3,9 C 1,1 C 85 % 992,4 hPa 0,0 l/m 0 min 0 min 91 W/m 22,5 km/h (4 Bft) 97,87 %
10.12.2021 10:50 3,9 C 3,9 C 1,1 C 85 % 992,4 hPa 0,0 l/m 0 min 0 min 91 W/m 19,3 km/h (3 Bft) 95,74 %
10.12.2021 10:52 3,9 C 3,9 C 1,1 C 85 % 992,4 hPa 0,0 l/m 0 min 0 min 91 W/m 22,5 km/h (4 Bft) 100,00 %
10.12.2021 10:54 3,9 C 3,9 C 1,1 C 85 % 992,4 hPa 0,0 l/m 0 min 0 min 91 W/m 25,7 km/h (4 Bft) 97,87 %
10.12.2021 10:56 3,9 C 3,9 C 1,1 C 85 % 992,4 hPa 0,0 l/m 0 min 0 min 91 W/m 25,7 km/h (4 Bft) 97,83 %
10.12.2021 10:58 3,9 C 3,9 C 1,1 C 84 % 992,4 hPa 0,0 l/m 0 min 0 min 90 W/m 29,0 km/h (5 Bft) 100,00 %
10.12.2021 11:00 3,9 C 3,9 C 1,1 C 84 % 992,4 hPa 0,0 l/m 0 min 0 min 89 W/m 25,7 km/h (4 Bft) 100,00 %
10.12.2021 11:02 3,9 C 3,9 C 1,1 C 84 % 992,4 hPa 0,0 l/m 0 min 0 min 86 W/m 25,7 km/h (4 Bft) 97,37 %
10.12.2021 11:04 3,9 C 3,9 C 1,1 C 84 % 992,4 hPa 0,0 l/m 0 min 0 min 84 W/m 12,9 km/h (3 Bft) 100,00 %
10.12.2021 11:06 4,0 C 3,9 C 1,1 C 84 % 992,4 hPa 0,0 l/m 0 min 0 min 82 W/m 25,7 km/h (4 Bft) 97,87 %
10.12.2021 11:08 4,0 C 3,9 C 1,1 C 84 % 992,4 hPa 0,0 l/m 0 min 0 min 81 W/m 25,7 km/h (4 Bft) 100,00 %
10.12.2021 11:10 4,0 C 3,9 C 1,1 C 84 % 992,4 hPa 0,0 l/m 0 min 0 min 79 W/m 19,3 km/h (3 Bft) 100,00 %
10.12.2021 11:12 4,0 C 3,9 C 1,1 C 84 % 992,3 hPa 0,0 l/m 0 min 0 min 78 W/m 19,3 km/h (3 Bft) 100,00 %
10.12.2021 11:14 4,0 C 3,9 C 1,1 C 84 % 992,2 hPa 0,0 l/m 0 min 0 min 79 W/m 22,5 km/h (4 Bft) 100,00 %
10.12.2021 11:16 4,0 C 3,9 C 1,1 C 84 % 992,3 hPa 0,0 l/m 0 min 0 min 80 W/m 25,7 km/h (4 Bft) 100,00 %
10.12.2021 11:18 4,0 C 3,9 C 1,1 C 84 % 992,2 hPa 0,0 l/m 0 min 0 min 83 W/m 22,5 km/h (4 Bft) 100,00 %
10.12.2021 11:20 4,0 C 3,9 C 1,1 C 84 % 992,2 hPa 0,0 l/m 0 min 0 min 88 W/m 25,7 km/h (4 Bft) 100,00 %
10.12.2021 11:22 4,0 C 3,9 C 1,1 C 83 % 992,1 hPa 0,0 l/m 0 min 0 min 96 W/m 22,5 km/h (4 Bft) 100,00 %
10.12.2021 11:24 4,0 C 3,9 C 1,1 C 83 % 992,0 hPa 0,0 l/m 0 min 0 min 102 W/m 22,5 km/h (4 Bft) 100,00 %
10.12.2021 11:26 4,1 C 3,9 C 1,1 C 83 % 992,0 hPa 0,0 l/m 0 min 0 min 105 W/m 22,5 km/h (4 Bft) 100,00 %
10.12.2021 11:28 4,1 C 3,9 C 1,1 C 83 % 992,0 hPa 0,0 l/m 0 min 0 min 107 W/m 19,3 km/h (3 Bft) 97,87 %
10.12.2021 11:30 4,1 C 3,9 C 1,1 C 83 % 992,0 hPa 0,0 l/m 0 min 0 min 107 W/m 22,5 km/h (4 Bft) 100,00 %
10.12.2021 11:32 4,1 C 3,9 C 1,1 C 83 % 992,0 hPa 0,0 l/m 0 min 0 min 105 W/m 22,5 km/h (4 Bft) 100,00 %
10.12.2021 11:34 4,1 C 3,9 C 1,1 C 83 % 992,0 hPa 0,0 l/m 0 min 0 min 104 W/m 25,7 km/h (4 Bft) 100,00 %
10.12.2021 11:36 4,1 C 3,9 C 1,1 C 83 % 992,0 hPa 0,0 l/m 0 min 0 min 104 W/m 22,5 km/h (4 Bft) 100,00 %
10.12.2021 11:38 4,1 C 3,9 C 1,1 C 83 % 992,0 hPa 0,0 l/m 0 min 0 min 104 W/m 25,7 km/h (4 Bft) 97,14 %
10.12.2021 11:40 4,1 C 3,9 C 1,1 C 83 % 992,1 hPa 0,0 l/m 0 min 0 min 105 W/m 25,7 km/h (4 Bft) 100,00 %
10.12.2021 11:42 4,1 C 3,9 C 1,1 C 82 % 992,0 hPa 0,0 l/m 0 min 0 min 106 W/m 25,7 km/h (4 Bft) 100,00 %
10.12.2021 11:44 4,1 C 3,9 C 1,1 C 83 % 992,0 hPa 0,0 l/m 0 min 0 min 107 W/m 19,3 km/h (3 Bft) 100,00 %
10.12.2021 11:46 4,2 C 3,9 C 1,1 C 83 % 992,0 hPa 0,0 l/m 0 min 0 min 109 W/m 19,3 km/h (3 Bft) 97,87 %
10.12.2021 11:48 4,2 C 3,9 C 1,1 C 83 % 992,0 hPa 0,0 l/m 0 min 0 min 109 W/m 29,0 km/h (5 Bft) 95,74 %
10.12.2021 11:50 4,2 C 3,9 C 1,1 C 83 % 992,0 hPa 0,0 l/m 0 min 0 min 109 W/m 19,3 km/h (3 Bft) 97,87 %
10.12.2021 11:52 4,2 C 3,9 C 1,1 C 83 % 992,0 hPa 0,0 l/m 0 min 0 min 109 W/m 19,3 km/h (3 Bft) 97,87 %
10.12.2021 11:54 4,2 C 3,9 C 1,1 C 83 % 991,9 hPa 0,0 l/m 0 min 0 min 109 W/m 16,1 km/h (3 Bft) 95,65 %
10.12.2021 11:56 4,2 C 4,4 C 1,1 C 83 % 991,9 hPa 0,0 l/m 0 min 0 min 108 W/m 16,1 km/h (3 Bft) 97,87 %
10.12.2021 11:58 4,2 C 3,9 C 1,1 C 83 % 991,9 hPa 0,0 l/m 0 min 0 min 107 W/m 25,7 km/h (4 Bft) 98,00 %
10.12.2021 12:00 4,2 C 4,4 C 1,1 C 82 % 991,9 hPa 0,0 l/m 0 min 0 min 107 W/m 16,1 km/h (3 Bft) 97,87 %
10.12.2021 12:02 4,2 C 4,4 C 1,1 C 82 % 991,9 hPa 0,0 l/m 0 min 0 min 107 W/m 22,5 km/h (4 Bft) 97,37 %
10.12.2021 12:04 4,3 C 4,4 C 1,1 C 82 % 992,0 hPa 0,0 l/m 0 min 0 min 107 W/m 19,3 km/h (3 Bft) 97,87 %
10.12.2021 12:08 4,3 C 4,4 C 1,1 C 82 % 992,0 hPa 0,0 l/m 0 min 0 min 105 W/m 29,0 km/h (5 Bft) 97,85 %
10.12.2021 12:10 4,3 C 3,9 C 1,1 C 82 % 992,0 hPa 0,0 l/m 0 min 0 min 103 W/m 22,5 km/h (4 Bft) 97,87 %
10.12.2021 12:12 4,3 C 3,9 C 1,1 C 82 % 992,0 hPa 0,0 l/m 0 min 0 min 103 W/m 22,5 km/h (4 Bft) 97,87 %
10.12.2021 12:14 4,3 C 3,9 C 1,1 C 82 % 992,0 hPa 0,0 l/m 0 min 0 min 105 W/m 22,5 km/h (4 Bft) 97,87 %
10.12.2021 12:16 4,3 C 4,4 C 1,7 C 82 % 992,0 hPa 0,0 l/m 0 min 0 min 107 W/m 19,3 km/h (3 Bft) 91,49 %
10.12.2021 12:18 4,3 C 4,4 C 1,1 C 82 % 992,0 hPa 0,0 l/m 0 min 0 min 110 W/m 22,5 km/h (4 Bft) 93,48 %
10.12.2021 12:20 4,3 C 4,4 C 1,7 C 82 % 992,0 hPa 0,0 l/m 0 min 0 min 112 W/m 19,3 km/h (3 Bft) 95,74 %
10.12.2021 12:22 4,3 C 4,4 C 1,7 C 82 % 992,0 hPa 0,0 l/m 0 min 0 min 114 W/m 12,9 km/h (3 Bft) 95,74 %
10.12.2021 12:24 4,4 C 4,4 C 1,7 C 82 % 992,1 hPa 0,0 l/m 0 min 0 min 116 W/m 16,1 km/h (3 Bft) 95,74 %
10.12.2021 12:26 4,4 C 4,4 C 1,7 C 82 % 992,0 hPa 0,0 l/m 0 min 0 min 118 W/m 25,7 km/h (4 Bft) 95,74 %
10.12.2021 12:28 4,4 C 4,4 C 1,7 C 81 % 992,1 hPa 0,0 l/m 0 min 0 min 118 W/m 19,3 km/h (3 Bft) 95,74 %
10.12.2021 12:30 4,4 C 4,4 C 1,7 C 81 % 992,0 hPa 0,0 l/m 0 min 0 min 115 W/m 25,7 km/h (4 Bft) 95,65 %
10.12.2021 12:32 4,4 C 4,4 C 1,7 C 81 % 992,1 hPa 0,0 l/m 0 min 0 min 113 W/m 22,5 km/h (4 Bft) 95,74 %
10.12.2021 12:34 4,5 C 4,4 C 1,7 C 81 % 992,1 hPa 0,0 l/m 0 min 0 min 113 W/m 16,1 km/h (3 Bft) 91,67 %
10.12.2021 12:36 4,5 C 4,4 C 1,7 C 81 % 992,0 hPa 0,0 l/m 0 min 0 min 114 W/m 22,5 km/h (4 Bft) 95,74 %
10.12.2021 12:38 4,5 C 4,4 C 1,7 C 81 % 992,1 hPa 0,0 l/m 0 min 0 min 116 W/m 29,0 km/h (5 Bft) 97,87 %
10.12.2021 12:40 4,5 C 4,4 C 1,7 C 81 % 992,1 hPa 0,0 l/m 0 min 0 min 119 W/m 16,1 km/h (3 Bft) 97,87 %
10.12.2021 12:42 4,6 C 4,4 C 1,7 C 81 % 992,1 hPa 0,0 l/m 0 min 0 min 120 W/m 12,9 km/h (3 Bft) 97,83 %
10.12.2021 12:44 4,6 C 4,4 C 1,7 C 81 % 992,1 hPa 0,0 l/m 0 min 0 min 120 W/m 25,7 km/h (4 Bft) 97,87 %
10.12.2021 12:46 4,6 C 4,4 C 1,7 C 81 % 992,1 hPa 0,0 l/m 0 min 0 min 121 W/m 19,3 km/h (3 Bft) 96,36 %
10.12.2021 12:48 4,6 C 4,4 C 1,7 C 81 % 992,2 hPa 0,0 l/m 0 min 0 min 121 W/m 19,3 km/h (3 Bft) 95,74 %
10.12.2021 12:50 4,6 C 4,4 C 1,7 C 81 % 992,1 hPa 0,0 l/m 0 min 0 min 120 W/m 19,3 km/h (3 Bft) 100,00 %
10.12.2021 12:52 4,6 C 4,4 C 1,7 C 80 % 992,1 hPa 0,0 l/m 0 min 0 min 118 W/m 16,1 km/h (3 Bft) 97,37 %
10.12.2021 12:54 4,6 C 4,4 C 1,7 C 80 % 992,2 hPa 0,0 l/m 0 min 0 min 116 W/m 19,3 km/h (3 Bft) 97,87 %
10.12.2021 12:56 4,7 C 4,4 C 1,7 C 80 % 992,1 hPa 0,0 l/m 0 min 0 min 114 W/m 19,3 km/h (3 Bft) 97,87 %
10.12.2021 12:58 4,7 C 4,4 C 1,7 C 80 % 992,2 hPa 0,0 l/m 0 min 0 min 116 W/m 22,5 km/h (4 Bft) 98,00 %
10.12.2021 13:00 4,7 C 4,4 C 1,7 C 80 % 992,1 hPa 0,0 l/m 0 min 0 min 116 W/m 25,7 km/h (4 Bft) 97,87 %
10.12.2021 13:02 4,7 C 4,4 C 1,7 C 80 % 992,2 hPa 0,0 l/m 0 min 0 min 116 W/m 22,5 km/h (4 Bft) 97,37 %
10.12.2021 13:04 4,7 C 4,4 C 1,7 C 80 % 992,2 hPa 0,0 l/m 0 min 0 min 116 W/m 19,3 km/h (3 Bft) 97,87 %
10.12.2021 13:06 4,7 C 4,4 C 1,7 C 80 % 992,2 hPa 0,0 l/m 0 min 0 min 114 W/m 22,5 km/h (4 Bft) 98,15 %
10.12.2021 13:08 4,7 C 4,4 C 1,7 C 80 % 992,2 hPa 0,0 l/m 0 min 0 min 113 W/m 25,7 km/h (4 Bft) 97,87 %
10.12.2021 13:10 4,7 C 4,4 C 1,7 C 80 % 992,2 hPa 0,0 l/m 0 min 0 min 111 W/m 25,7 km/h (4 Bft) 97,87 %
10.12.2021 13:12 4,7 C 4,4 C 1,7 C 80 % 992,3 hPa 0,0 l/m 0 min 0 min 111 W/m 25,7 km/h (4 Bft) 95,74 %
10.12.2021 13:14 4,7 C 4,4 C 1,7 C 79 % 992,2 hPa 0,0 l/m 0 min 0 min 111 W/m 22,5 km/h (4 Bft) 97,87 %
10.12.2021 13:16 4,7 C 4,4 C 1,7 C 79 % 992,2 hPa 0,0 l/m 0 min 0 min 110 W/m 25,7 km/h (4 Bft) 95,65 %
10.12.2021 13:18 4,7 C 4,4 C 1,7 C 79 % 992,2 hPa 0,0 l/m 0 min 0 min 110 W/m 22,5 km/h (4 Bft) 97,87 %
10.12.2021 13:20 4,7 C 4,4 C 1,7 C 79 % 992,2 hPa 0,0 l/m 0 min 0 min 111 W/m 19,3 km/h (3 Bft) 97,87 %
10.12.2021 13:22 4,7 C 4,4 C 1,7 C 79 % 992,2 hPa 0,0 l/m 0 min 0 min 114 W/m 19,3 km/h (3 Bft) 97,87 %
10.12.2021 13:24 4,7 C 4,4 C 1,7 C 79 % 992,2 hPa 0,0 l/m 0 min 0 min 119 W/m 16,1 km/h (3 Bft) 97,87 %
10.12.2021 13:26 4,8 C 5,0 C 1,7 C 80 % 992,3 hPa 0,0 l/m 0 min 0 min 122 W/m 12,9 km/h (3 Bft) 97,96 %
10.12.2021 13:28 4,8 C 5,0 C 1,7 C 80 % 992,2 hPa 0,0 l/m 0 min 0 min 131 W/m 25,7 km/h (4 Bft) 95,74 %
10.12.2021 13:30 4,8 C 5,0 C 1,7 C 79 % 992,3 hPa 0,0 l/m 0 min 0 min 133 W/m 16,1 km/h (3 Bft) 97,87 %
10.12.2021 13:32 4,8 C 5,0 C 1,7 C 79 % 992,3 hPa 0,0 l/m 0 min 0 min 124 W/m 25,7 km/h (4 Bft) 97,87 %
10.12.2021 13:34 4,8 C 5,0 C 1,7 C 79 % 992,3 hPa 0,0 l/m 0 min 0 min 114 W/m 16,1 km/h (3 Bft) 97,92 %
10.12.2021 13:36 4,8 C 5,0 C 1,7 C 79 % 992,4 hPa 0,0 l/m 0 min 0 min 118 W/m 16,1 km/h (3 Bft) 97,87 %
10.12.2021 13:38 4,8 C 5,0 C 1,7 C 79 % 992,4 hPa 0,0 l/m 0 min 0 min 114 W/m 16,1 km/h (3 Bft) 100,00 %
10.12.2021 13:40 4,9 C 5,0 C 1,7 C 79 % 992,3 hPa 0,0 l/m 0 min 0 min 111 W/m 12,9 km/h (3 Bft) 100,00 %
10.12.2021 13:42 4,9 C 5,0 C 1,7 C 80 % 992,4 hPa 0,0 l/m 0 min 0 min 106 W/m 19,3 km/h (3 Bft) 100,00 %
10.12.2021 13:44 4,9 C 5,0 C 1,7 C 80 % 992,4 hPa 0,0 l/m 0 min 0 min 106 W/m 19,3 km/h (3 Bft) 97,87 %
10.12.2021 13:46 4,9 C 5,0 C 1,7 C 80 % 992,4 hPa 0,0 l/m 0 min 0 min 105 W/m 16,1 km/h (3 Bft) 100,00 %
10.12.2021 13:48 4,9 C 5,0 C 1,7 C 80 % 992,4 hPa 0,0 l/m 0 min 0 min 105 W/m 16,1 km/h (3 Bft) 100,00 %
10.12.2021 13:50 4,9 C 4,4 C 1,7 C 80 % 992,4 hPa 0,0 l/m 0 min 0 min 102 W/m 22,5 km/h (4 Bft) 100,00 %
10.12.2021 13:52 4,9 C 4,4 C 1,7 C 80 % 992,4 hPa 0,0 l/m 0 min 0 min 98 W/m 22,5 km/h (4 Bft) 97,83 %
10.12.2021 13:54 4,9 C 4,4 C 1,7 C 80 % 992,5 hPa 0,0 l/m 0 min 0 min 99 W/m 16,1 km/h (3 Bft) 100,00 %
10.12.2021 13:56 4,9 C 4,4 C 1,7 C 80 % 992,5 hPa 0,0 l/m 0 min 0 min 98 W/m 12,9 km/h (3 Bft) 100,00 %
10.12.2021 13:58 4,9 C 4,4 C 1,7 C 80 % 992,6 hPa 0,0 l/m 0 min 0 min 93 W/m 19,3 km/h (3 Bft) 100,00 %
10.12.2021 14:00 4,9 C 4,4 C 1,7 C 80 % 992,6 hPa 0,0 l/m 0 min 0 min 91 W/m 16,1 km/h (3 Bft) 100,00 %
10.12.2021 14:02 4,9 C 4,4 C 1,7 C 81 % 992,6 hPa 0,0 l/m 0 min 0 min 87 W/m 19,3 km/h (3 Bft) 100,00 %
10.12.2021 14:04 4,8 C 4,4 C 1,1 C 80 % 992,6 hPa 0,0 l/m 0 min 0 min 84 W/m 35,4 km/h (5 Bft) 100,00 %
10.12.2021 14:06 4,8 C 4,4 C 1,1 C 80 % 992,7 hPa 0,0 l/m 0 min 0 min 83 W/m 16,1 km/h (3 Bft) 100,00 %
10.12.2021 14:08 4,8 C 4,4 C 1,1 C 80 % 992,7 hPa 0,0 l/m 0 min 0 min 80 W/m 22,5 km/h (4 Bft) 100,00 %
10.12.2021 14:10 4,8 C 4,4 C 1,1 C 80 % 992,7 hPa 0,0 l/m 0 min 0 min 77 W/m 19,3 km/h (3 Bft) 97,87 %
10.12.2021 14:12 4,7 C 4,4 C 1,1 C 81 % 992,8 hPa 0,0 l/m 0 min 0 min 75 W/m 19,3 km/h (3 Bft) 100,00 %
10.12.2021 14:14 4,7 C 4,4 C 1,1 C 81 % 992,8 hPa 0,0 l/m 0 min 0 min 74 W/m 16,1 km/h (3 Bft) 100,00 %
10.12.2021 14:16 4,7 C 3,9 C 1,1 C 81 % 992,7 hPa 0,0 l/m 0 min 0 min 74 W/m 12,9 km/h (3 Bft) 100,00 %
10.12.2021 14:18 4,7 C 4,4 C 1,1 C 81 % 992,8 hPa 0,0 l/m 0 min 0 min 74 W/m 12,9 km/h (3 Bft) 100,00 %
10.12.2021 14:20 4,7 C 4,4 C 1,1 C 81 % 992,8 hPa 0,0 l/m 0 min 0 min 76 W/m 12,9 km/h (3 Bft) 95,74 %
10.12.2021 14:22 4,7 C 4,4 C 1,1 C 81 % 992,8 hPa 0,0 l/m 0 min 0 min 76 W/m 12,9 km/h (3 Bft) 95,74 %
10.12.2021 14:24 4,7 C 4,4 C 1,1 C 81 % 992,9 hPa 0,0 l/m 0 min 0 min 74 W/m 6,4 km/h (2 Bft) 95,74 %
10.12.2021 14:26 4,7 C 4,4 C 1,1 C 82 % 992,9 hPa 0,0 l/m 0 min 0 min 72 W/m 16,1 km/h (3 Bft) 97,83 %
10.12.2021 14:28 4,7 C 3,9 C 1,1 C 81 % 992,9 hPa 0,0 l/m 0 min 0 min 69 W/m 16,1 km/h (3 Bft) 97,87 %
10.12.2021 14:30 4,6 C 3,9 C 1,1 C 81 % 993,0 hPa 0,0 l/m 0 min 0 min 67 W/m 16,1 km/h (3 Bft) 97,87 %
10.12.2021 14:32 4,6 C 3,9 C 1,1 C 81 % 993,0 hPa 0,0 l/m 0 min 0 min 64 W/m 16,1 km/h (3 Bft) 93,62 %
10.12.2021 14:34 4,6 C 3,9 C 1,1 C 81 % 992,9 hPa 0,0 l/m 0 min 0 min 63 W/m 19,3 km/h (3 Bft) 97,87 %
10.12.2021 14:36 4,6 C 3,9 C 1,1 C 81 % 993,0 hPa 0,0 l/m 0 min 0 min 62 W/m 25,7 km/h (4 Bft) 95,74 %
10.12.2021 14:38 4,6 C 3,9 C 1,1 C 81 % 993,0 hPa 0,0 l/m 0 min 0 min 60 W/m 22,5 km/h (4 Bft) 95,74 %
10.12.2021 14:40 4,6 C 3,9 C 1,1 C 81 % 993,0 hPa 0,0 l/m 0 min 0 min 57 W/m 16,1 km/h (3 Bft) 95,74 %
10.12.2021 14:42 4,5 C 3,9 C 1,1 C 82 % 993,1 hPa 0,0 l/m 0 min 0 min 55 W/m 12,9 km/h (3 Bft) 95,74 %
10.12.2021 14:44 4,5 C 3,9 C 1,1 C 82 % 993,1 hPa 0,0 l/m 0 min 0 min 51 W/m 22,5 km/h (4 Bft) 98,18 %
10.12.2021 14:46 4,5 C 3,9 C 1,1 C 82 % 993,2 hPa 0,0 l/m 0 min 0 min 47 W/m 16,1 km/h (3 Bft) 95,65 %
10.12.2021 14:48 4,4 C 3,9 C 1,1 C 82 % 993,2 hPa 0,0 l/m 0 min 0 min 45 W/m 12,9 km/h (3 Bft) 93,62 %
10.12.2021 14:50 4,4 C 3,9 C 1,1 C 82 % 993,2 hPa 0,0 l/m 0 min 0 min 42 W/m 12,9 km/h (3 Bft) 97,87 %
10.12.2021 14:52 4,4 C 3,9 C 1,1 C 82 % 993,2 hPa 0,0 l/m 0 min 0 min 40 W/m 16,1 km/h (3 Bft) 95,74 %
10.12.2021 14:54 4,4 C 3,9 C 1,1 C 82 % 993,2 hPa 0,0 l/m 0 min 0 min 39 W/m 16,1 km/h (3 Bft) 95,74 %
10.12.2021 14:56 4,4 C 3,9 C 1,1 C 82 % 993,2 hPa 0,0 l/m 0 min 0 min 36 W/m 16,1 km/h (3 Bft) 95,74 %
10.12.2021 14:58 4,4 C 3,9 C 1,1 C 82 % 993,2 hPa 0,0 l/m 0 min 0 min 35 W/m 16,1 km/h (3 Bft) 97,62 %
10.12.2021 15:00 4,4 C 3,9 C 1,1 C 82 % 993,3 hPa 0,0 l/m 0 min 0 min 34 W/m 6,4 km/h (2 Bft) 97,83 %
10.12.2021 15:02 4,4 C 3,9 C 1,1 C 82 % 993,3 hPa 0,0 l/m 0 min 0 min 33 W/m 19,3 km/h (3 Bft) 98,00 %
10.12.2021 15:04 4,3 C 3,9 C 1,1 C 82 % 993,3 hPa 0,0 l/m 0 min 0 min 33 W/m 19,3 km/h (3 Bft) 97,14 %
10.12.2021 15:06 4,3 C 3,9 C 1,1 C 82 % 993,3 hPa 0,0 l/m 0 min 0 min 33 W/m 6,4 km/h (2 Bft) 97,87 %
10.12.2021 15:08 4,3 C 3,9 C 1,1 C 82 % 993,4 hPa 0,0 l/m 0 min 0 min 32 W/m 6,4 km/h (2 Bft) 98,18 %
10.12.2021 15:10 4,3 C 3,9 C 1,1 C 83 % 993,4 hPa 0,0 l/m 0 min 0 min 30 W/m 6,4 km/h (2 Bft) 100,00 %
10.12.2021 15:12 4,3 C 3,9 C 1,1 C 83 % 993,5 hPa 0,0 l/m 0 min 0 min 29 W/m 9,7 km/h (2 Bft) 97,83 %
10.12.2021 15:14 4,3 C 3,9 C 1,1 C 83 % 993,5 hPa 0,0 l/m 0 min 0 min 28 W/m 6,4 km/h (2 Bft) 97,87 %
10.12.2021 15:16 4,3 C 3,9 C 1,1 C 83 % 993,5 hPa 0,0 l/m 0 min 0 min 26 W/m 12,9 km/h (3 Bft) 98,00 %
10.12.2021 15:18 4,3 C 3,9 C 1,1 C 83 % 993,5 hPa 0,0 l/m 0 min 0 min 26 W/m 19,3 km/h (3 Bft) 97,87 %
10.12.2021 15:20 4,3 C 3,9 C 0,6 C 83 % 993,5 hPa 0,0 l/m 0 min 0 min 26 W/m 12,9 km/h (3 Bft) 95,74 %
10.12.2021 15:22 4,3 C 3,9 C 0,6 C 83 % 993,5 hPa 0,0 l/m 0 min 0 min 26 W/m 19,3 km/h (3 Bft) 97,83 %
10.12.2021 15:24 4,3 C 3,9 C 0,6 C 83 % 993,5 hPa 0,0 l/m 0 min 0 min 26 W/m 12,9 km/h (3 Bft) 100,00 %
10.12.2021 15:26 4,3 C 3,9 C 0,6 C 83 % 993,5 hPa 0,0 l/m 0 min 0 min 26 W/m 12,9 km/h (3 Bft) 100,00 %
10.12.2021 15:28 4,2 C 3,9 C 0,6 C 83 % 993,6 hPa 0,0 l/m 0 min 0 min 26 W/m 16,1 km/h (3 Bft) 100,00 %
10.12.2021 15:30 4,2 C 3,9 C 0,6 C 83 % 993,6 hPa 0,0 l/m 0 min 0 min 25 W/m 6,4 km/h (2 Bft) 100,00 %
10.12.2021 15:32 4,2 C 3,9 C 0,6 C 83 % 993,6 hPa 0,0 l/m 0 min 0 min 25 W/m 12,9 km/h (3 Bft) 100,00 %
10.12.2021 15:34 4,2 C 3,9 C 0,6 C 83 % 993,7 hPa 0,0 l/m 0 min 0 min 25 W/m 6,4 km/h (2 Bft) 97,83 %
10.12.2021 15:36 4,2 C 3,9 C 0,6 C 83 % 993,7 hPa 0,0 l/m 0 min 0 min 24 W/m 12,9 km/h (3 Bft) 97,87 %
10.12.2021 15:38 4,2 C 3,3 C 0,6 C 83 % 993,7 hPa 0,0 l/m 0 min 0 min 21 W/m 12,9 km/h (3 Bft) 97,87 %
10.12.2021 15:40 4,2 C 3,3 C 0,6 C 83 % 993,7 hPa 0,0 l/m 0 min 0 min 20 W/m 6,4 km/h (2 Bft) 97,87 %
10.12.2021 15:42 4,2 C 3,3 C 0,6 C 84 % 993,8 hPa 0,0 l/m 0 min 0 min 19 W/m 12,9 km/h (3 Bft) 97,87 %
10.12.2021 15:44 4,2 C 3,3 C 0,6 C 84 % 993,8 hPa 0,0 l/m 0 min 0 min 19 W/m 12,9 km/h (3 Bft) 97,83 %
10.12.2021 15:46 4,2 C 3,3 C 0,6 C 84 % 993,8 hPa 0,0 l/m 0 min 0 min 19 W/m 6,4 km/h (2 Bft) 95,74 %
10.12.2021 15:48 4,2 C 3,3 C 0,6 C 84 % 993,8 hPa 0,0 l/m 0 min 0 min 18 W/m 6,4 km/h (2 Bft) 97,87 %
10.12.2021 15:50 4,1 C 3,3 C 0,6 C 84 % 993,9 hPa 0,0 l/m 0 min 0 min 18 W/m 9,7 km/h (2 Bft) 97,87 %
10.12.2021 15:52 4,1 C 3,3 C 0,6 C 84 % 993,9 hPa 0,0 l/m 0 min 0 min 17 W/m 6,4 km/h (2 Bft) 97,87 %
10.12.2021 15:54 4,1 C 3,3 C 0,6 C 84 % 993,9 hPa 0,0 l/m 0 min 0 min 16 W/m 6,4 km/h (2 Bft) 97,87 %
10.12.2021 15:56 4,1 C 3,3 C 0,6 C 84 % 993,9 hPa 0,0 l/m 0 min 0 min 15 W/m 6,4 km/h (2 Bft) 97,83 %
10.12.2021 15:58 4,1 C 3,3 C 0,6 C 84 % 994,0 hPa 0,0 l/m 0 min 0 min 14 W/m 12,9 km/h (3 Bft) 97,87 %
10.12.2021 16:00 4,1 C 3,3 C 0,6 C 84 % 994,1 hPa 0,0 l/m 0 min 0 min 12 W/m 12,9 km/h (3 Bft) 97,87 %
10.12.2021 16:02 4,1 C 3,3 C 0,6 C 84 % 994,1 hPa 0,0 l/m 0 min 0 min 12 W/m 9,7 km/h (2 Bft) 95,74 %
10.12.2021 16:04 4,1 C 3,3 C 0,6 C 84 % 994,1 hPa 0,0 l/m 0 min 0 min 11 W/m 6,4 km/h (2 Bft) 97,87 %
10.12.2021 16:06 4,1 C 3,3 C 0,6 C 84 % 994,1 hPa 0,0 l/m 0 min 0 min 11 W/m 6,4 km/h (2 Bft) 95,74 %
10.12.2021 16:08 4,1 C 3,3 C 0,6 C 85 % 994,1 hPa 0,0 l/m 0 min 0 min 9 W/m 6,4 km/h (2 Bft) 97,83 %
10.12.2021 16:10 4,0 C 3,3 C 0,6 C 85 % 994,1 hPa 0,0 l/m 0 min 0 min 9 W/m 6,4 km/h (2 Bft) 95,74 %
10.12.2021 16:12 4,0 C 3,3 C 0,6 C 85 % 994,2 hPa 0,0 l/m 0 min 0 min 7 W/m 16,1 km/h (3 Bft) 97,87 %
10.12.2021 16:14 4,0 C 3,3 C 0,6 C 85 % 994,2 hPa 0,0 l/m 0 min 0 min 7 W/m 16,1 km/h (3 Bft) 97,87 %
10.12.2021 16:16 3,9 C 3,3 C 0,6 C 85 % 994,2 hPa 0,0 l/m 0 min 0 min 6 W/m 12,9 km/h (3 Bft) 95,74 %
10.12.2021 16:18 3,9 C 3,3 C 0,6 C 85 % 994,3 hPa 0,0 l/m 0 min 0 min 5 W/m 16,1 km/h (3 Bft) 95,74 %
10.12.2021 16:20 3,9 C 3,3 C 0,6 C 85 % 994,3 hPa 0,0 l/m 0 min 0 min 2 W/m 6,4 km/h (2 Bft) 95,65 %
10.12.2021 16:22 3,9 C 3,3 C 0,6 C 85 % 994,3 hPa 0,0 l/m 0 min 0 min 0 W/m 6,4 km/h (2 Bft) 93,62 %
10.12.2021 16:24 3,9 C 3,3 C 0,6 C 85 % 994,4 hPa 0,0 l/m 0 min 0 min 0 W/m 6,4 km/h (2 Bft) 95,74 %
10.12.2021 16:26 3,9 C 3,3 C 0,6 C 85 % 994,4 hPa 0,0 l/m 0 min 0 min 0 W/m 6,4 km/h (2 Bft) 97,87 %
10.12.2021 16:28 3,9 C 3,3 C 0,6 C 85 % 994,5 hPa 0,0 l/m 0 min 0 min 0 W/m 6,4 km/h (2 Bft) 97,87 %
10.12.2021 16:30 3,8 C 3,3 C 0,6 C 86 % 994,5 hPa 0,0 l/m 0 min 0 min 0 W/m 6,4 km/h (2 Bft) 93,62 %
10.12.2021 16:32 3,8 C 3,3 C 0,6 C 86 % 994,6 hPa 0,0 l/m 0 min 0 min 0 W/m 6,4 km/h (2 Bft) 97,83 %
10.12.2021 16:34 3,8 C 2,8 C 0,6 C 86 % 994,6 hPa 0,0 l/m 0 min 0 min 0 W/m 6,4 km/h (2 Bft) 95,74 %
10.12.2021 16:36 3,8 C 2,8 C 0,6 C 86 % 994,6 hPa 0,0 l/m 0 min 0 min 0 W/m 6,4 km/h (2 Bft) 97,87 %
10.12.2021 16:38 3,8 C 2,8 C 0,6 C 86 % 994,6 hPa 0,0 l/m 0 min 0 min 0 W/m 6,4 km/h (2 Bft) 97,87 %
10.12.2021 16:40 3,8 C 2,8 C 0,0 C 86 % 994,7 hPa 0,0 l/m 0 min 0 min 0 W/m 6,4 km/h (2 Bft) 97,87 %
10.12.2021 16:42 3,8 C 2,8 C 0,0 C 86 % 994,6 hPa 0,0 l/m 0 min 0 min 0 W/m 6,4 km/h (2 Bft) 97,83 %
10.12.2021 16:44 3,8 C 2,8 C 0,0 C 86 % 994,8 hPa 0,0 l/m 0 min 0 min 0 W/m 3,2 km/h (1 Bft) 95,74 %
10.12.2021 16:46 3,7 C 2,8 C 0,0 C 86 % 994,9 hPa 0,0 l/m 0 min 0 min 0 W/m 3,2 km/h (1 Bft) 97,87 %
10.12.2021 16:48 3,7 C 2,8 C 0,0 C 86 % 994,9 hPa 0,0 l/m 0 min 0 min 0 W/m 3,2 km/h (1 Bft) 97,87 %
10.12.2021 16:50 3,7 C 2,8 C 0,0 C 87 % 994,9 hPa 0,0 l/m 0 min 0 min 0 W/m 3,2 km/h (1 Bft) 100,00 %
10.12.2021 16:52 3,7 C 2,8 C 0,0 C 87 % 994,9 hPa 0,0 l/m 0 min 0 min 0 W/m 3,2 km/h (1 Bft) 97,87 %
10.12.2021 16:54 3,7 C 2,8 C 0,0 C 87 % 994,9 hPa 0,0 l/m 0 min 0 min 0 W/m 3,2 km/h (1 Bft) 97,83 %
10.12.2021 16:56 3,7 C 2,8 C 0,0 C 87 % 995,0 hPa 0,0 l/m 0 min 0 min 0 W/m 6,4 km/h (2 Bft) 91,49 %
10.12.2021 16:58 3,7 C 2,8 C 0,0 C 87 % 994,9 hPa 0,0 l/m 0 min 0 min 0 W/m 3,2 km/h (1 Bft) 55,26 %
10.12.2021 17:00 3,7 C 2,8 C 0,0 C 87 % 995,0 hPa 0,0 l/m 0 min 0 min 0 W/m 3,2 km/h (1 Bft) 97,87 %
10.12.2021 17:02 3,7 C 2,8 C 0,0 C 87 % 995,1 hPa 0,0 l/m 0 min 0 min 0 W/m 3,2 km/h (1 Bft) 100,00 %
10.12.2021 17:04 3,7 C 2,8 C 0,0 C 87 % 995,1 hPa 0,0 l/m 0 min 0 min 0 W/m 3,2 km/h (1 Bft) 97,87 %
10.12.2021 17:06 3,7 C 2,8 C 0,0 C 87 % 995,1 hPa 0,0 l/m 0 min 0 min 0 W/m 0,0 km/h (0 Bft) 100,00 %
10.12.2021 17:08 3,7 C 2,8 C 0,0 C 87 % 995,1 hPa 0,0 l/m 0 min 0 min 0 W/m 0,0 km/h (0 Bft) 97,87 %
10.12.2021 17:10 3,7 C 2,8 C 0,0 C 87 % 995,2 hPa 0,0 l/m 0 min 0 min 0 W/m 0,0 km/h (0 Bft) 95,74 %
10.12.2021 17:12 3,7 C 2,8 C 0,0 C 87 % 995,2 hPa 0,0 l/m 0 min 0 min 0 W/m 0,0 km/h (0 Bft) 93,62 %
10.12.2021 17:14 3,6 C 2,8 C 0,0 C 87 % 995,2 hPa 0,0 l/m 0 min 0 min 0 W/m 0,0 km/h (0 Bft) 97,87 %
10.12.2021 17:16 3,6 C 2,8 C 0,0 C 87 % 995,3 hPa 0,0 l/m 0 min 0 min 0 W/m 3,2 km/h (1 Bft) 95,74 %
10.12.2021 17:18 3,6 C 2,8 C 0,0 C 87 % 995,3 hPa 0,0 l/m 0 min 0 min 0 W/m 3,2 km/h (1 Bft) 97,83 %
10.12.2021 17:20 3,6 C 2,8 C 0,0 C 87 % 995,3 hPa 0,0 l/m 0 min 0 min 0 W/m 3,2 km/h (1 Bft) 97,87 %
10.12.2021 17:22 3,6 C 2,8 C 0,0 C 87 % 995,4 hPa 0,0 l/m 0 min 0 min 0 W/m 3,2 km/h (1 Bft) 95,74 %
10.12.2021 17:24 3,6 C 2,8 C 0,6 C 87 % 995,4 hPa 0,0 l/m 0 min 0 min 0 W/m 3,2 km/h (1 Bft) 97,87 %
10.12.2021 17:26 3,6 C 2,8 C 0,6 C 87 % 995,5 hPa 0,0 l/m 0 min 0 min 0 W/m 0,0 km/h (0 Bft) 95,74 %
10.12.2021 17:28 3,6 C 2,8 C 0,0 C 87 % 995,4 hPa 0,0 l/m 0 min 0 min 0 W/m 3,2 km/h (1 Bft) 97,87 %
10.12.2021 17:30 3,6 C 3,3 C 0,6 C 87 % 995,5 hPa 0,0 l/m 0 min 0 min 0 W/m 3,2 km/h (1 Bft) 97,83 %
10.12.2021 17:32 3,6 C 3,3 C 0,6 C 87 % 995,5 hPa 0,0 l/m 0 min 0 min 0 W/m 0,0 km/h (0 Bft) 97,87 %
10.12.2021 17:34 3,6 C 3,3 C 0,0 C 87 % 995,5 hPa 0,0 l/m 0 min 0 min 0 W/m 0,0 km/h (0 Bft) 97,87 %
10.12.2021 17:36 3,6 C 2,8 C 0,0 C 87 % 995,6 hPa 0,0 l/m 0 min 0 min 0 W/m 3,2 km/h (1 Bft) 97,87 %
10.12.2021 17:38 3,6 C 2,8 C 0,0 C 87 % 995,6 hPa 0,0 l/m 0 min 0 min 0 W/m 0,0 km/h (0 Bft) 97,87 %
10.12.2021 17:40 3,6 C 2,8 C 0,0 C 87 % 995,7 hPa 0,0 l/m 0 min 0 min 0 W/m 0,0 km/h (0 Bft) 97,83 %
10.12.2021 17:42 3,6 C 2,8 C 0,0 C 88 % 995,7 hPa 0,0 l/m 0 min 0 min 0 W/m 0,0 km/h (0 Bft) 97,87 %
10.12.2021 17:44 3,6 C 2,8 C 0,0 C 88 % 995,8 hPa 0,0 l/m 0 min 0 min 0 W/m 0,0 km/h (0 Bft) 95,74 %
10.12.2021 17:46 3,6 C 2,8 C 0,0 C 88 % 995,8 hPa 0,0 l/m 0 min 0 min 0 W/m 0,0 km/h (0 Bft) 97,87 %
10.12.2021 17:48 3,6 C 2,8 C 0,0 C 88 % 995,9 hPa 0,0 l/m 0 min 0 min 0 W/m 0,0 km/h (0 Bft) 97,87 %
10.12.2021 17:50 3,6 C 2,8 C 0,0 C 88 % 995,9 hPa 0,0 l/m 0 min 0 min 0 W/m 0,0 km/h (0 Bft) 100,00 %
10.12.2021 17:52 3,6 C 2,8 C 0,0 C 88 % 996,0 hPa 0,0 l/m 0 min 0 min 0 W/m 0,0 km/h (0 Bft) 97,83 %
10.12.2021 17:54 3,6 C 2,8 C 0,0 C 88 % 996,0 hPa 0,0 l/m 0 min 0 min 0 W/m 0,0 km/h (0 Bft) 100,00 %
10.12.2021 17:56 3,6 C 2,8 C 0,0 C 88 % 996,1 hPa 0,0 l/m 0 min 0 min 0 W/m 0,0 km/h (0 Bft) 100,00 %
10.12.2021 17:58 3,6 C 2,8 C 0,0 C 88 % 996,1 hPa 0,0 l/m 0 min 0 min 0 W/m 0,0 km/h (0 Bft) 100,00 %
10.12.2021 18:00 3,6 C 2,8 C 0,0 C 88 % 996,2 hPa 0,0 l/m 0 min 0 min 0 W/m 0,0 km/h (0 Bft) 100,00 %
10.12.2021 18:02 3,6 C 2,8 C 0,0 C 88 % 996,2 hPa 0,0 l/m 0 min 0 min 0 W/m 0,0 km/h (0 Bft) 100,00 %
10.12.2021 18:04 3,6 C 2,8 C 0,0 C 88 % 996,2 hPa 0,0 l/m 0 min 0 min 0 W/m 0,0 km/h (0 Bft) 97,83 %
10.12.2021 18:07 3,6 C 2,8 C 0,0 C 88 % 996,3 hPa 0,0 l/m 0 min 0 min 0 W/m 3,2 km/h (1 Bft) 100,00 %
10.12.2021 18:08 3,6 C 2,8 C 0,0 C 88 % 996,3 hPa 0,0 l/m 0 min 0 min 0 W/m 0,0 km/h (0 Bft) 95,65 %
10.12.2021 18:10 3,6 C 2,8 C 0,0 C 88 % 996,4 hPa 0,0 l/m 0 min 0 min 0 W/m 3,2 km/h (1 Bft) 95,74 %
10.12.2021 18:12 3,6 C 2,8 C 0,0 C 88 % 996,4 hPa 0,0 l/m 0 min 0 min 0 W/m 0,0 km/h (0 Bft) 97,87 %
10.12.2021 18:14 3,6 C 2,8 C 0,0 C 88 % 996,4 hPa 0,0 l/m 0 min 0 min 0 W/m 3,2 km/h (1 Bft) 97,87 %
10.12.2021 18:16 3,6 C 2,8 C 0,0 C 88 % 996,5 hPa 0,0 l/m 0 min 0 min 0 W/m 3,2 km/h (1 Bft) 97,83 %
10.12.2021 18:18 3,6 C 2,8 C 0,0 C 88 % 996,5 hPa 0,0 l/m 0 min 0 min 0 W/m 0,0 km/h (0 Bft) 97,87 %
10.12.2021 18:20 3,6 C 2,8 C 0,0 C 88 % 996,5 hPa 0,0 l/m 0 min 0 min 0 W/m 0,0 km/h (0 Bft) 97,87 %
10.12.2021 18:22 3,6 C 2,8 C 0,0 C 88 % 996,5 hPa 0,0 l/m 0 min 0 min 0 W/m 0,0 km/h (0 Bft) 95,74 %
10.12.2021 18:24 3,6 C 2,8 C 0,0 C 88 % 996,6 hPa 0,0 l/m 0 min 0 min 0 W/m 0,0 km/h (0 Bft) 97,87 %
10.12.2021 18:26 3,6 C 2,8 C 0,0 C 88 % 996,7 hPa 0,0 l/m 0 min 0 min 0 W/m 3,2 km/h (1 Bft) 97,87 %
10.12.2021 18:28 3,5 C 2,8 C 0,0 C 88 % 996,7 hPa 0,0 l/m 0 min 0 min 0 W/m 0,0 km/h (0 Bft) 97,83 %
10.12.2021 18:30 3,5 C 2,8 C 0,0 C 88 % 996,7 hPa 0,0 l/m 0 min 0 min 0 W/m 3,2 km/h (1 Bft) 97,87 %
10.12.2021 18:32 3,5 C 2,8 C 0,0 C 88 % 996,7 hPa 0,0 l/m 0 min 0 min 0 W/m 0,0 km/h (0 Bft) 97,87 %
10.12.2021 18:34 3,5 C 3,3 C 0,6 C 88 % 996,7 hPa 0,0 l/m 0 min 0 min 0 W/m 3,2 km/h (1 Bft) 95,74 %
10.12.2021 18:36 3,5 C 3,3 C 0,6 C 88 % 996,9 hPa 0,0 l/m 0 min 0 min 0 W/m 0,0 km/h (0 Bft) 97,87 %
10.12.2021 18:38 3,5 C 3,3 C 0,6 C 88 % 996,9 hPa 0,0 l/m 0 min 0 min 0 W/m 3,2 km/h (1 Bft) 97,87 %
10.12.2021 18:40 3,5 C 3,3 C 0,6 C 88 % 997,0 hPa 0,0 l/m 0 min 0 min 0 W/m 0,0 km/h (0 Bft) 95,65 %
10.12.2021 18:42 3,5 C 3,3 C 0,0 C 88 % 997,0 hPa 0,0 l/m 0 min 0 min 0 W/m 0,0 km/h (0 Bft) 97,87 %
10.12.2021 18:44 3,5 C 2,8 C 0,0 C 88 % 997,0 hPa 0,0 l/m 0 min 0 min 0 W/m 0,0 km/h (0 Bft) 97,14 %
10.12.2021 18:46 3,5 C 2,8 C 0,0 C 88 % 997,1 hPa 0,0 l/m 0 min 0 min 0 W/m 0,0 km/h (0 Bft) 98,18 %
10.12.2021 18:48 3,5 C 2,8 C 0,0 C 88 % 997,1 hPa 0,0 l/m 0 min 0 min 0 W/m 0,0 km/h (0 Bft) 98,00 %
10.12.2021 18:50 3,5 C 2,8 C 0,0 C 88 % 997,1 hPa 0,0 l/m 0 min 0 min 0 W/m 0,0 km/h (0 Bft) 95,74 %
10.12.2021 18:52 3,5 C 2,8 C 0,0 C 88 % 997,2 hPa 0,0 l/m 0 min 0 min 0 W/m 0,0 km/h (0 Bft) 97,22 %
10.12.2021 18:54 3,5 C 2,8 C 0,0 C 88 % 997,2 hPa 0,0 l/m 0 min 0 min 0 W/m 0,0 km/h (0 Bft) 98,15 %
10.12.2021 18:56 3,5 C 2,8 C 0,0 C 88 % 997,3 hPa 0,0 l/m 0 min 0 min 0 W/m 0,0 km/h (0 Bft) 95,74 %
10.12.2021 18:58 3,5 C 2,8 C 0,0 C 88 % 997,4 hPa 0,0 l/m 0 min 0 min 0 W/m 0,0 km/h (0 Bft) 96,00 %
10.12.2021 19:00 3,5 C 2,8 C 0,0 C 88 % 997,4 hPa 0,0 l/m 0 min 0 min 0 W/m 0,0 km/h (0 Bft) 97,92 %
10.12.2021 19:02 3,5 C 2,8 C 0,0 C 88 % 997,4 hPa 0,0 l/m 0 min 0 min 0 W/m 0,0 km/h (0 Bft) 95,65 %
10.12.2021 19:04 3,5 C 2,8 C 0,0 C 88 % 997,5 hPa 0,0 l/m 0 min 0 min 0 W/m 0,0 km/h (0 Bft) 97,22 %
10.12.2021 19:06 3,5 C 2,8 C 0,0 C 88 % 997,5 hPa 0,0 l/m 0 min 0 min 0 W/m 0,0 km/h (0 Bft) 98,08 %
10.12.2021 19:08 3,5 C 2,8 C 0,0 C 88 % 997,6 hPa 0,0 l/m 0 min 0 min 0 W/m 0,0 km/h (0 Bft) 97,87 %
10.12.2021 19:10 3,5 C 2,8 C 0,0 C 88 % 997,6 hPa 0,0 l/m 0 min 0 min 0 W/m 0,0 km/h (0 Bft) 98,00 %
10.12.2021 19:12 3,5 C 2,8 C 0,0 C 88 % 997,6 hPa 0,0 l/m 0 min 0 min 0 W/m 3,2 km/h (1 Bft) 97,87 %
10.12.2021 19:14 3,5 C 2,8 C 0,0 C 88 % 997,7 hPa 0,0 l/m 0 min 0 min 0 W/m 3,2 km/h (1 Bft) 97,83 %
10.12.2021 19:16 3,5 C 2,8 C 0,0 C 88 % 997,7 hPa 0,0 l/m 0 min 0 min 0 W/m 0,0 km/h (0 Bft) 96,00 %
10.12.2021 19:18 3,5 C 2,8 C 0,0 C 88 % 997,7 hPa 0,0 l/m 0 min 0 min 0 W/m 0,0 km/h (0 Bft) 95,74 %
10.12.2021 19:20 3,5 C 2,8 C 0,0 C 88 % 997,8 hPa 0,0 l/m 0 min 0 min 0 W/m 3,2 km/h (1 Bft) 97,87 %
10.12.2021 19:22 3,5 C 2,8 C 0,0 C 88 % 997,8 hPa 0,0 l/m 0 min 0 min 0 W/m 0,0 km/h (0 Bft) 97,14 %
10.12.2021 19:24 3,5 C 2,8 C 0,0 C 88 % 997,9 hPa 0,0 l/m 0 min 0 min 0 W/m 0,0 km/h (0 Bft) 97,87 %
10.12.2021 19:26 3,5 C 2,8 C 0,0 C 88 % 997,9 hPa 0,0 l/m 0 min 2 min 0 W/m 0,0 km/h (0 Bft) 98,18 %
10.12.2021 19:28 3,5 C 2,8 C 0,0 C 88 % 998,0 hPa 0,0 l/m 0 min 0 min 0 W/m 0,0 km/h (0 Bft) 95,74 %
10.12.2021 19:30 3,5 C 2,8 C 0,0 C 89 % 998,0 hPa 0,0 l/m 0 min 0 min 0 W/m 0,0 km/h (0 Bft) 97,87 %
10.12.2021 19:32 3,5 C 2,8 C 0,0 C 89 % 998,1 hPa 0,0 l/m 0 min 0 min 0 W/m 3,2 km/h (1 Bft) 93,75 %
10.12.2021 19:34 3,5 C 2,8 C 0,0 C 89 % 998,1 hPa 0,0 l/m 0 min 0 min 0 W/m 0,0 km/h (0 Bft) 97,96 %
10.12.2021 19:36 3,6 C 2,8 C 0,0 C 89 % 998,2 hPa 0,0 l/m 0 min 0 min 0 W/m 0,0 km/h (0 Bft) 97,87 %
10.12.2021 19:38 3,6 C 2,8 C 0,0 C 89 % 998,2 hPa 0,0 l/m 0 min 0 min 0 W/m 0,0 km/h (0 Bft) 97,14 %
10.12.2021 19:40 3,5 C 2,8 C 0,0 C 89 % 998,3 hPa 0,0 l/m 0 min 0 min 0 W/m 0,0 km/h (0 Bft) 97,83 %
10.12.2021 19:42 3,6 C 2,8 C 0,0 C 89 % 998,3 hPa 0,0 l/m 0 min 0 min 0 W/m 0,0 km/h (0 Bft) 95,74 %
10.12.2021 19:44 3,5 C 2,8 C 0,0 C 89 % 998,3 hPa 0,0 l/m 0 min 0 min 0 W/m 0,0 km/h (0 Bft) 97,87 %
10.12.2021 19:46 3,5 C 2,8 C 0,0 C 89 % 998,4 hPa 0,0 l/m 0 min 0 min 0 W/m 0,0 km/h (0 Bft) 97,87 %
10.12.2021 19:48 3,5 C 2,8 C 0,0 C 89 % 998,4 hPa 0,0 l/m 0 min 0 min 0 W/m 3,2 km/h (1 Bft) 95,74 %
10.12.2021 19:50 3,5 C 2,8 C 0,0 C 90 % 998,5 hPa 0,0 l/m 0 min 0 min 0 W/m 3,2 km/h (1 Bft) 52,38 %
10.12.2021 19:52 3,5 C 2,8 C 0,0 C 90 % 998,5 hPa 0,0 l/m 0 min 0 min 0 W/m 0,0 km/h (0 Bft) 93,48 %
10.12.2021 19:54 3,5 C 2,8 C 0,0 C 90 % 998,6 hPa 0,0 l/m 0 min 0 min 0 W/m 0,0 km/h (0 Bft) 97,87 %
10.12.2021 19:56 3,5 C 2,8 C 0,0 C 90 % 998,6 hPa 0,0 l/m 0 min 0 min 0 W/m 0,0 km/h (0 Bft) 97,87 %
10.12.2021 19:58 3,5 C 2,8 C 0,0 C 90 % 998,6 hPa 0,0 l/m 0 min 0 min 0 W/m 0,0 km/h (0 Bft) 95,74 %
10.12.2021 20:00 3,4 C 2,8 C 0,0 C 90 % 998,6 hPa 0,0 l/m 0 min 0 min 0 W/m 3,2 km/h (1 Bft) 95,74 %
10.12.2021 20:02 3,4 C 2,8 C 0,0 C 90 % 998,7 hPa 0,0 l/m 0 min 0 min 0 W/m 0,0 km/h (0 Bft) 95,74 %
10.12.2021 20:04 3,4 C 2,8 C 0,0 C 90 % 998,8 hPa 0,0 l/m 0 min 0 min 0 W/m 0,0 km/h (0 Bft) 94,44 %
10.12.2021 20:06 3,4 C 2,8 C 0,0 C 90 % 998,9 hPa 0,0 l/m 0 min 0 min 0 W/m 0,0 km/h (0 Bft) 95,74 %
10.12.2021 20:08 3,4 C 2,8 C 0,0 C 90 % 999,0 hPa 0,0 l/m 0 min 0 min 0 W/m 3,2 km/h (1 Bft) 96,00 %
10.12.2021 20:10 3,4 C 2,8 C 0,0 C 90 % 999,0 hPa 0,0 l/m 0 min 0 min 0 W/m 3,2 km/h (1 Bft) 95,83 %
10.12.2021 20:12 3,4 C 2,8 C 0,0 C 91 % 999,0 hPa 0,0 l/m 0 min 0 min 0 W/m 3,2 km/h (1 Bft) 93,48 %
10.12.2021 20:14 3,4 C 2,8 C 0,0 C 91 % 999,0 hPa 0,0 l/m 0 min 0 min 0 W/m 6,4 km/h (2 Bft) 91,49 %
10.12.2021 20:16 3,4 C 2,8 C 0,0 C 91 % 999,0 hPa 0,0 l/m 0 min 0 min 0 W/m 3,2 km/h (1 Bft) 100,00 %
10.12.2021 20:18 3,4 C 2,8 C 0,0 C 91 % 999,1 hPa 0,0 l/m 0 min 0 min 0 W/m 3,2 km/h (1 Bft) 97,87 %
10.12.2021 20:20 3,4 C 2,8 C 0,0 C 91 % 999,1 hPa 0,0 l/m 0 min 0 min 0 W/m 0,0 km/h (0 Bft) 96,36 %
10.12.2021 20:22 3,4 C 2,8 C 0,0 C 91 % 999,2 hPa 0,0 l/m 0 min 0 min 0 W/m 3,2 km/h (1 Bft) 97,87 %
10.12.2021 20:24 3,4 C 2,8 C 0,0 C 91 % 999,2 hPa 0,0 l/m 0 min 0 min 0 W/m 3,2 km/h (1 Bft) 97,96 %
10.12.2021 20:26 3,3 C 2,8 C 0,0 C 91 % 999,2 hPa 0,0 l/m 0 min 0 min 0 W/m 0,0 km/h (0 Bft) 97,87 %
10.12.2021 20:28 3,3 C 2,8 C 0,0 C 91 % 999,3 hPa 0,0 l/m 0 min 0 min 0 W/m 3,2 km/h (1 Bft) 97,92 %
10.12.2021 20:30 3,3 C 2,8 C 0,0 C 91 % 999,4 hPa 0,0 l/m 0 min 0 min 0 W/m 3,2 km/h (1 Bft) 100,00 %
10.12.2021 20:32 3,3 C 2,8 C 0,0 C 91 % 999,4 hPa 0,0 l/m 0 min 0 min 0 W/m 3,2 km/h (1 Bft) 100,00 %
10.12.2021 20:34 3,3 C 2,8 C 0,0 C 91 % 999,5 hPa 0,0 l/m 0 min 0 min 0 W/m 0,0 km/h (0 Bft) 100,00 %
10.12.2021 20:36 3,3 C 2,8 C 0,0 C 91 % 999,5 hPa 0,0 l/m 0 min 0 min 0 W/m 0,0 km/h (0 Bft) 100,00 %
10.12.2021 20:38 3,3 C 2,8 C 0,0 C 91 % 999,6 hPa 0,0 l/m 0 min 0 min 0 W/m 0,0 km/h (0 Bft) 100,00 %
10.12.2021 20:40 3,3 C 2,8 C 0,0 C 91 % 999,6 hPa 0,0 l/m 0 min 0 min 0 W/m 0,0 km/h (0 Bft) 100,00 %
10.12.2021 20:42 3,3 C 2,8 C 0,0 C 91 % 999,7 hPa 0,0 l/m 0 min 0 min 0 W/m 0,0 km/h (0 Bft) 100,00 %
10.12.2021 20:44 3,3 C 2,8 C 0,0 C 91 % 999,7 hPa 0,0 l/m 0 min 0 min 0 W/m 0,0 km/h (0 Bft) 100,00 %
10.12.2021 20:46 3,3 C 2,8 C 0,0 C 91 % 999,8 hPa 0,0 l/m 0 min 0 min 0 W/m 0,0 km/h (0 Bft) 97,14 %
10.12.2021 20:48 3,3 C 2,8 C 0,0 C 91 % 999,8 hPa 0,0 l/m 0 min 0 min 0 W/m 0,0 km/h (0 Bft) 100,00 %
10.12.2021 20:50 3,3 C 2,8 C 0,0 C 92 % 999,8 hPa 0,0 l/m 0 min 0 min 0 W/m 0,0 km/h (0 Bft) 100,00 %
10.12.2021 20:52 3,3 C 2,8 C 0,0 C 92 % 999,8 hPa 0,0 l/m 0 min 0 min 0 W/m 0,0 km/h (0 Bft) 100,00 %
10.12.2021 20:54 3,3 C 2,8 C 0,0 C 92 % 999,8 hPa 0,0 l/m 0 min 0 min 0 W/m 0,0 km/h (0 Bft) 100,00 %
10.12.2021 20:56 3,3 C 2,8 C 0,0 C 92 % 999,9 hPa 0,0 l/m 0 min 0 min 0 W/m 0,0 km/h (0 Bft) 100,00 %
10.12.2021 20:58 3,3 C 2,8 C 0,0 C 92 % 1000,0 hPa 0,0 l/m 0 min 0 min 0 W/m 0,0 km/h (0 Bft) 100,00 %
10.12.2021 21:00 3,3 C 2,8 C 0,0 C 92 % 1000,0 hPa 0,0 l/m 0 min 0 min 0 W/m 0,0 km/h (0 Bft) 100,00 %
10.12.2021 21:02 3,3 C 2,8 C 0,0 C 92 % 1000,0 hPa 0,0 l/m 0 min 0 min 0 W/m 0,0 km/h (0 Bft) 100,00 %
10.12.2021 21:04 3,3 C 2,8 C 0,0 C 92 % 1000,1 hPa 0,0 l/m 0 min 0 min 0 W/m 0,0 km/h (0 Bft) 100,00 %
10.12.2021 21:06 3,3 C 2,8 C 0,0 C 92 % 1000,1 hPa 0,0 l/m 0 min 0 min 0 W/m 0,0 km/h (0 Bft) 100,00 %
10.12.2021 21:08 3,3 C 2,8 C 0,0 C 92 % 1000,2 hPa 0,0 l/m 0 min 0 min 0 W/m 0,0 km/h (0 Bft) 100,00 %
10.12.2021 21:10 3,3 C 2,8 C 0,0 C 92 % 1000,2 hPa 0,0 l/m 0 min 0 min 0 W/m 0,0 km/h (0 Bft) 100,00 %
10.12.2021 21:12 3,3 C 2,8 C 0,0 C 92 % 1000,2 hPa 0,0 l/m 0 min 0 min 0 W/m 0,0 km/h (0 Bft) 100,00 %
10.12.2021 21:14 3,3 C 2,8 C 0,0 C 92 % 1000,3 hPa 0,0 l/m 0 min 0 min 0 W/m 0,0 km/h (0 Bft) 98,00 %
10.12.2021 21:16 3,3 C 2,8 C 0,0 C 92 % 1000,4 hPa 0,0 l/m 0 min 0 min 0 W/m 0,0 km/h (0 Bft) 100,00 %
10.12.2021 21:18 3,3 C 2,8 C 0,0 C 92 % 1000,4 hPa 0,0 l/m 0 min 0 min 0 W/m 0,0 km/h (0 Bft) 100,00 %
10.12.2021 21:20 3,3 C 2,8 C 0,0 C 92 % 1000,5 hPa 0,0 l/m 0 min 0 min 0 W/m 0,0 km/h (0 Bft) 100,00 %
10.12.2021 21:22 3,3 C 2,8 C 0,0 C 92 % 1000,5 hPa 0,0 l/m 0 min 0 min 0 W/m 6,4 km/h (2 Bft) 100,00 %
10.12.2021 21:24 3,3 C 2,8 C 0,0 C 92 % 1000,6 hPa 0,0 l/m 0 min 0 min 0 W/m 3,2 km/h (1 Bft) 100,00 %
10.12.2021 21:26 3,3 C 2,8 C 0,0 C 92 % 1000,7 hPa 0,0 l/m 0 min 0 min 0 W/m 3,2 km/h (1 Bft) 100,00 %
10.12.2021 21:28 3,3 C 2,8 C 0,0 C 92 % 1000,7 hPa 0,0 l/m 0 min 0 min 0 W/m 3,2 km/h (1 Bft) 100,00 %
10.12.2021 21:30 3,2 C 2,8 C 0,0 C 92 % 1000,7 hPa 0,0 l/m 0 min 0 min 0 W/m 0,0 km/h (0 Bft) 100,00 %
10.12.2021 21:32 3,3 C 2,8 C 0,0 C 92 % 1000,7 hPa 0,0 l/m 0 min 0 min 0 W/m 0,0 km/h (0 Bft) 97,14 %
10.12.2021 21:34 3,2 C 2,8 C 0,0 C 92 % 1000,8 hPa 0,0 l/m 0 min 0 min 0 W/m 0,0 km/h (0 Bft) 100,00 %
10.12.2021 21:36 3,2 C 2,8 C 0,0 C 92 % 1000,8 hPa 0,0 l/m 0 min 0 min 0 W/m 6,4 km/h (2 Bft) 100,00 %
10.12.2021 21:38 3,2 C 2,8 C 0,0 C 92 % 1000,8 hPa 0,0 l/m 0 min 0 min 0 W/m 6,4 km/h (2 Bft) 100,00 %
10.12.2021 21:40 3,2 C 2,8 C 0,0 C 92 % 1000,8 hPa 0,0 l/m 0 min 0 min 0 W/m 3,2 km/h (1 Bft) 56,52 %
10.12.2021 21:42 3,2 C 2,8 C 0,0 C 92 % 1000,9 hPa 0,0 l/m 0 min 0 min 0 W/m 3,2 km/h (1 Bft) 100,00 %
10.12.2021 21:44 3,2 C 2,8 C 0,0 C 92 % 1000,9 hPa 0,0 l/m 0 min 0 min 0 W/m 6,4 km/h (2 Bft) 97,83 %
10.12.2021 21:46 3,2 C 2,8 C 0,0 C 92 % 1000,9 hPa 0,0 l/m 0 min 0 min 0 W/m 3,2 km/h (1 Bft) 100,00 %
10.12.2021 21:48 3,2 C 2,8 C 0,0 C 92 % 1001,0 hPa 0,0 l/m 0 min 0 min 0 W/m 6,4 km/h (2 Bft) 98,15 %
10.12.2021 21:50 3,2 C 2,8 C 0,0 C 92 % 1001,0 hPa 0,0 l/m 0 min 0 min 0 W/m 3,2 km/h (1 Bft) 98,00 %
10.12.2021 21:52 3,2 C 2,2 C 0,0 C 92 % 1001,0 hPa 0,0 l/m 0 min 0 min 0 W/m 3,2 km/h (1 Bft) 95,74 %
10.12.2021 21:54 3,1 C 2,2 C 0,0 C 92 % 1001,1 hPa 0,0 l/m 0 min 0 min 0 W/m 3,2 km/h (1 Bft) 91,49 %
10.12.2021 21:56 3,1 C 2,2 C 0,0 C 92 % 1001,2 hPa 0,0 l/m 0 min 0 min 0 W/m 0,0 km/h (0 Bft) 95,74 %
10.12.2021 21:58 3,1 C 2,2 C 0,0 C 92 % 1001,2 hPa 0,0 l/m 0 min 0 min 0 W/m 3,2 km/h (1 Bft) 94,44 %
10.12.2021 22:00 3,1 C 2,2 C 0,0 C 92 % 1001,2 hPa 0,0 l/m 0 min 0 min 0 W/m 0,0 km/h (0 Bft) 92,59 %
10.12.2021 22:02 3,1 C 2,2 C 0,0 C 92 % 1001,3 hPa 0,0 l/m 0 min 0 min 0 W/m 3,2 km/h (1 Bft) 95,74 %
10.12.2021 22:04 3,1 C 2,2 C -0,6 C 92 % 1001,3 hPa 0,0 l/m 0 min 0 min 0 W/m 3,2 km/h (1 Bft) 92,00 %
10.12.2021 22:06 3,0 C 2,2 C -0,6 C 92 % 1001,3 hPa 0,0 l/m 0 min 0 min 0 W/m 0,0 km/h (0 Bft) 93,62 %
10.12.2021 22:08 3,0 C 1,7 C -0,6 C 92 % 1001,4 hPa 0,0 l/m 0 min 0 min 0 W/m 3,2 km/h (1 Bft) 86,96 %
10.12.2021 22:10 2,9 C 1,7 C -0,6 C 92 % 1001,4 hPa 0,0 l/m 0 min 0 min 0 W/m 3,2 km/h (1 Bft) 91,49 %
10.12.2021 22:12 2,9 C 1,7 C -0,6 C 92 % 1001,5 hPa 0,0 l/m 0 min 0 min 0 W/m 0,0 km/h (0 Bft) 93,75 %
10.12.2021 22:14 2,9 C 1,7 C -0,6 C 92 % 1001,5 hPa 0,0 l/m 0 min 0 min 0 W/m 0,0 km/h (0 Bft) 91,49 %
10.12.2021 22:16 2,9 C 1,7 C -1,1 C 92 % 1001,6 hPa 0,0 l/m 0 min 0 min 0 W/m 3,2 km/h (1 Bft) 94,29 %
10.12.2021 22:18 2,8 C 1,7 C -1,1 C 92 % 1001,6 hPa 0,0 l/m 0 min 0 min 0 W/m 3,2 km/h (1 Bft) 95,74 %
10.12.2021 22:20 2,8 C 1,7 C -1,1 C 92 % 1001,6 hPa 0,0 l/m 0 min 0 min 0 W/m 3,2 km/h (1 Bft) 95,74 %
10.12.2021 22:22 2,8 C 1,7 C -1,1 C 92 % 1001,7 hPa 0,0 l/m 0 min 0 min 0 W/m 3,2 km/h (1 Bft) 92,59 %
10.12.2021 22:24 2,7 C 1,7 C -1,1 C 92 % 1001,7 hPa 0,0 l/m 0 min 0 min 0 W/m 0,0 km/h (0 Bft) 92,00 %
10.12.2021 22:26 2,7 C 1,1 C -1,1 C 92 % 1001,8 hPa 0,0 l/m 0 min 0 min 0 W/m 0,0 km/h (0 Bft) 93,62 %
10.12.2021 22:28 2,7 C 1,1 C -1,1 C 92 % 1001,8 hPa 0,0 l/m 0 min 0 min 0 W/m 0,0 km/h (0 Bft) 95,83 %
10.12.2021 22:30 2,7 C 1,1 C -1,1 C 92 % 1001,9 hPa 0,0 l/m 0 min 0 min 0 W/m 0,0 km/h (0 Bft) 95,65 %
10.12.2021 22:32 2,6 C 1,1 C -1,1 C 92 % 1001,9 hPa 0,0 l/m 0 min 0 min 0 W/m 0,0 km/h (0 Bft) 94,44 %
10.12.2021 22:34 2,6 C 1,1 C -1,7 C 92 % 1001,9 hPa 0,0 l/m 0 min 0 min 0 W/m 3,2 km/h (1 Bft) 96,30 %
10.12.2021 22:36 2,6 C 0,6 C -1,7 C 92 % 1002,0 hPa 0,0 l/m 0 min 0 min 0 W/m 0,0 km/h (0 Bft) 97,87 %
10.12.2021 22:38 2,5 C 0,6 C -1,7 C 92 % 1002,0 hPa 0,0 l/m 0 min 0 min 0 W/m 0,0 km/h (0 Bft) 97,87 %
10.12.2021 22:40 2,5 C 0,6 C -1,7 C 92 % 1002,0 hPa 0,0 l/m 0 min 0 min 0 W/m 0,0 km/h (0 Bft) 98,00 %
10.12.2021 22:42 2,4 C 0,6 C -1,7 C 92 % 1002,0 hPa 0,0 l/m 0 min 0 min 0 W/m 0,0 km/h (0 Bft) 97,83 %
10.12.2021 22:44 2,4 C 0,6 C -1,7 C 92 % 1002,0 hPa 0,0 l/m 0 min 0 min 0 W/m 0,0 km/h (0 Bft) 95,74 %
10.12.2021 22:46 2,3 C 0,6 C -1,7 C 92 % 1002,0 hPa 0,0 l/m 0 min 0 min 0 W/m 0,0 km/h (0 Bft) 97,92 %
10.12.2021 22:48 2,3 C 0,6 C -1,7 C 92 % 1002,1 hPa 0,0 l/m 0 min 0 min 0 W/m 3,2 km/h (1 Bft) 97,87 %
10.12.2021 22:50 2,3 C 0,6 C -2,2 C 92 % 1002,1 hPa 0,0 l/m 0 min 0 min 0 W/m 0,0 km/h (0 Bft) 97,87 %
10.12.2021 22:52 2,2 C 0,6 C -2,2 C 92 % 1002,2 hPa 0,0 l/m 0 min 0 min 0 W/m 0,0 km/h (0 Bft) 97,14 %
10.12.2021 22:54 2,2 C 0,6 C -2,2 C 92 % 1002,3 hPa 0,0 l/m 0 min 0 min 0 W/m 0,0 km/h (0 Bft) 97,87 %
10.12.2021 22:56 2,1 C 0,0 C -2,2 C 92 % 1002,3 hPa 0,0 l/m 0 min 0 min 0 W/m 0,0 km/h (0 Bft) 100,00 %
10.12.2021 22:58 2,1 C 0,0 C -2,2 C 92 % 1002,3 hPa 0,0 l/m 0 min 0 min 0 W/m 0,0 km/h (0 Bft) 100,00 %
10.12.2021 23:00 2,1 C 0,0 C -2,2 C 92 % 1002,4 hPa 0,0 l/m 0 min 0 min 0 W/m 0,0 km/h (0 Bft) 98,00 %
10.12.2021 23:02 2,0 C 0,0 C -2,2 C 92 % 1002,4 hPa 0,0 l/m 0 min 0 min 0 W/m 0,0 km/h (0 Bft) 97,92 %
10.12.2021 23:04 1,9 C 0,0 C -2,2 C 92 % 1002,5 hPa 0,0 l/m 0 min 0 min 0 W/m 0,0 km/h (0 Bft) 100,00 %
10.12.2021 23:06 1,9 C 0,0 C -2,2 C 92 % 1002,6 hPa 0,0 l/m 0 min 0 min 0 W/m 0,0 km/h (0 Bft) 100,00 %
10.12.2021 23:08 1,9 C 0,0 C -2,2 C 92 % 1002,7 hPa 0,0 l/m 0 min 0 min 0 W/m 3,2 km/h (1 Bft) 97,87 %
10.12.2021 23:10 1,8 C 0,0 C -2,2 C 92 % 1002,7 hPa 0,0 l/m 0 min 0 min 0 W/m 0,0 km/h (0 Bft) 100,00 %
10.12.2021 23:12 1,8 C 0,0 C -2,2 C 92 % 1002,7 hPa 0,0 l/m 0 min 0 min 0 W/m 0,0 km/h (0 Bft) 100,00 %
10.12.2021 23:14 1,8 C 0,0 C -2,2 C 92 % 1002,8 hPa 0,0 l/m 0 min 0 min 0 W/m 0,0 km/h (0 Bft) 97,96 %
10.12.2021 23:16 1,7 C 0,0 C -2,2 C 92 % 1002,8 hPa 0,0 l/m 0 min 0 min 0 W/m 0,0 km/h (0 Bft) 100,00 %
10.12.2021 23:18 1,7 C 0,0 C -2,2 C 92 % 1002,8 hPa 0,0 l/m 0 min 0 min 0 W/m 0,0 km/h (0 Bft) 97,87 %
10.12.2021 23:20 1,7 C 0,0 C -2,2 C 92 % 1002,8 hPa 0,0 l/m 0 min 0 min 0 W/m 0,0 km/h (0 Bft) 100,00 %
10.12.2021 23:22 1,6 C 0,0 C -2,2 C 92 % 1002,9 hPa 0,0 l/m 0 min 0 min 0 W/m 3,2 km/h (1 Bft) 100,00 %
10.12.2021 23:24 1,6 C 0,0 C -2,2 C 92 % 1002,9 hPa 0,0 l/m 0 min 0 min 0 W/m 3,2 km/h (1 Bft) 95,74 %
10.12.2021 23:26 1,6 C 0,0 C -2,2 C 92 % 1003,0 hPa 0,0 l/m 0 min 0 min 0 W/m 3,2 km/h (1 Bft) 100,00 %
10.12.2021 23:28 1,5 C 0,0 C -2,2 C 92 % 1003,0 hPa 0,0 l/m 0 min 0 min 0 W/m 3,2 km/h (1 Bft) 100,00 %
10.12.2021 23:30 1,5 C 0,0 C -2,2 C 92 % 1003,1 hPa 0,0 l/m 0 min 0 min 0 W/m 0,0 km/h (0 Bft) 95,92 %
10.12.2021 23:32 1,4 C 0,0 C -2,2 C 92 % 1003,2 hPa 0,0 l/m 0 min 0 min 0 W/m 3,2 km/h (1 Bft) 95,83 %
10.12.2021 23:34 1,4 C 0,0 C -2,2 C 92 % 1003,3 hPa 0,0 l/m 0 min 0 min 0 W/m 3,2 km/h (1 Bft) 97,14 %
10.12.2021 23:36 1,4 C 0,0 C -2,2 C 92 % 1003,3 hPa 0,0 l/m 0 min 0 min 0 W/m 0,0 km/h (0 Bft) 97,87 %
10.12.2021 23:38 1,3 C 0,0 C -2,2 C 92 % 1003,3 hPa 0,0 l/m 0 min 0 min 0 W/m 0,0 km/h (0 Bft) 96,36 %
10.12.2021 23:40 1,3 C 0,0 C -2,2 C 92 % 1003,3 hPa 0,0 l/m 0 min 0 min 0 W/m 0,0 km/h (0 Bft) 97,83 %
10.12.2021 23:42 1,3 C 0,0 C -2,2 C 92 % 1003,3 hPa 0,0 l/m 0 min 0 min 0 W/m 3,2 km/h (1 Bft) 98,00 %
10.12.2021 23:44 1,3 C 0,0 C -2,2 C 92 % 1003,4 hPa 0,0 l/m 0 min 0 min 0 W/m 3,2 km/h (1 Bft) 97,92 %
10.12.2021 23:46 1,3 C 0,0 C -2,2 C 92 % 1003,5 hPa 0,0 l/m 0 min 0 min 0 W/m 3,2 km/h (1 Bft) 97,14 %
10.12.2021 23:48 1,2 C 0,0 C -2,2 C 92 % 1003,5 hPa 0,0 l/m 0 min 0 min 0 W/m 3,2 km/h (1 Bft) 98,18 %
10.12.2021 23:50 1,2 C 0,0 C -2,2 C 92 % 1003,5 hPa 0,0 l/m 0 min 0 min 0 W/m 3,2 km/h (1 Bft) 97,87 %
10.12.2021 23:52 1,2 C 0,0 C -2,2 C 92 % 1003,6 hPa 0,0 l/m 0 min 0 min 0 W/m 3,2 km/h (1 Bft) 93,88 %
10.12.2021 23:54 1,2 C 0,0 C -2,2 C 92 % 1003,6 hPa 0,0 l/m 0 min 0 min 0 W/m 3,2 km/h (1 Bft) 95,74 %
10.12.2021 23:56 1,1 C 0,0 C -2,2 C 92 % 1003,7 hPa 0,0 l/m 0 min 0 min 0 W/m 3,2 km/h (1 Bft) 95,74 %
10.12.2021 23:58 1,1 C 0,0 C -2,2 C 92 % 1003,7 hPa 0,0 l/m 0 min 0 min 0 W/m 3,2 km/h (1 Bft) 100,00 %
_ Min-Zeit 23:56 22:56 22:50 13:14 11:54 - - - - 17:06 09:28
Minimum _ 1,1 C 0,0 C -2,2 C 79 % 991,9 hPa - - - - 0,0 km/h (0 Bft) 46,15 %
_ Max-Zeit 13:40 13:26 12:16 00:00 23:56 00:00 00:00 19:26 13:30 10:06 00:00
Maximum _ 4,9 C 5,0 C 1,7 C 96 % 1003,7 hPa 0,0 l/m 0 min 2 min 133 W/m 45,1 km/h
O (6 Bft)
100,00 %
Durchschnitt _ 3,3 C 2,8 C 0,4 C 89 % 995,8 hPa #0,0 l/m #0 min. #2 min. 69 W/m 12,9 km/h (3 Bft) 97,26 %
© 2021 W. Hausmann